M I D A S
Marine Information and Data Acquisition System
Tripno 767 of the Zeeleeuw from 2004-08-25 06:24:38 to 2004-08-25 13:28:47
Back to CruiseResearch ActivitiesStationsMapUnderway DataData graphs

EquipmentUnitsComment
TimeDGPSUTC
LatitudeDGPSDM.mWGS84
LongitudeDGPSDM.mWGS84
TemperatureSBE03/SBE38deg celciusITS90
ConductivitySBE21S/mITS90
SalinitySBE21 Practical Salinity Units
ChlorophylAChelsea fluorimeterg/lCalibrated in Aceton
Missing or incorrect values are displayed as -999
Sea surface data collected by the RV Zeeleeuw from 2004-08-25 06:24:38 to 2004-08-25 13:28:47
                                                                                    Next 1000 lines
Time Latitude Longitude Temperature Conductivity Salinity ChlorophylA
2004-08-25 06:24:46 51°13.596 2°56.115 21.983261 4.653974 32.705103 -0.74754
2004-08-25 06:24:52 51°13.596 2°56.115 21.986251 4.653974 32.705103 -0.781249
2004-08-25 06:24:57 51°13.596 2°56.115 21.991602 4.653869 32.704273 -0.781249
2004-08-25 06:25:02 51°13.595 2°56.115 22.001791 4.653869 32.704273 -0.781249
2004-08-25 06:25:06 51°13.595 2°56.114 21.99593 4.653869 32.704799 -0.781249
2004-08-25 06:25:10 51°13.596 2°56.114 21.99593 4.653869 32.704799 -0.781249
2004-08-25 06:25:16 51°13.596 2°56.114 22.003129 4.653869 32.704799 -0.814958
2004-08-25 06:25:22 51°13.596 2°56.114 21.996126 4.653763 32.704494 -0.781249
2004-08-25 06:25:26 51°13.596 2°56.114 21.954924 4.653763 32.704494 -0.814958
2004-08-25 06:25:32 51°13.595 2°56.114 21.966142 4.653763 32.704494 -0.814958
2004-08-25 06:25:36 51°13.595 2°56.114 22.001909 4.653658 32.70419 -0.781249
2004-08-25 06:25:41 51°13.595 2°56.114 22.001909 4.653658 32.70419 -0.781249
2004-08-25 06:25:46 51°13.595 2°56.114 21.99054 4.653763 32.70502 -0.781249
2004-08-25 06:25:52 51°13.595 2°56.114 21.982474 4.653658 32.704715 -0.781249
2004-08-25 06:25:57 51°13.595 2°56.114 22.002185 4.653658 32.705241 -0.781249
2004-08-25 06:26:02 51°13.595 2°56.114 22.017682 4.653553 32.704411 -0.781249
2004-08-25 06:26:06 51°13.595 2°56.114 22.012333 4.653553 32.704937 -0.781249
2004-08-25 06:26:10 51°13.595 2°56.114 22.012333 4.653553 32.704937 -0.781249
2004-08-25 06:26:14 51°13.595 2°56.114 22.014182 4.653658 32.705767 -0.814958
2004-08-25 06:26:22 51°13.595 2°56.114 22.016935 4.653447 32.704107 -0.781249
2004-08-25 06:26:27 51°13.595 2°56.114 22.016148 4.653553 32.705462 -0.781249
2004-08-25 06:26:30 51°13.595 2°56.114 22.016384 4.653447 32.705158 -0.814958
2004-08-25 06:26:37 51°13.595 2°56.114 22.00305 4.653447 32.704632 -0.814958
2004-08-25 06:26:42 51°13.595 2°56.113 22.00305 4.653447 32.704632 -0.814958
2004-08-25 06:26:46 51°13.595 2°56.112 21.959136 4.653342 32.704328 -0.814958
2004-08-25 06:26:52 51°13.596 2°56.109 21.945319 4.653342 32.704328 -0.781249
2004-08-25 06:26:57 51°13.597 2°56.106 21.956223 4.653236 32.704023 -0.781249
2004-08-25 06:27:02 51°13.598 2°56.102 21.957443 4.653342 32.704853 -0.781249
2004-08-25 06:27:07 51°13.6 2°56.098 21.963741 4.653236 32.704549 -0.781249
2004-08-25 06:27:12 51°13.601 2°56.093 21.963741 4.653236 32.704549 -0.781249
2004-08-25 06:27:18 51°13.603 2°56.087 21.965119 4.653342 32.705379 -0.848668
2004-08-25 06:27:23 51°13.605 2°56.081 21.966811 4.653236 32.705075 -0.781249
2004-08-25 06:27:28 51°13.606 2°56.075 21.967126 4.653131 32.704244 -0.781249
2004-08-25 06:27:32 51°13.608 2°56.07 21.965827 4.653236 32.704549 -0.781249
2004-08-25 06:27:38 51°13.609 2°56.062 21.983339 4.653131 32.704244 -0.74754
2004-08-25 06:27:43 51°13.611 2°56.056 21.983339 4.653131 32.704244 -0.74754
2004-08-25 06:27:48 51°13.612 2°56.051 22.022008 4.653131 32.704244 -0.814958
2004-08-25 06:27:52 51°13.612 2°56.05 22.125049 4.653131 32.70477 -0.781249
2004-08-25 06:27:58 51°13.612 2°56.051 22.162621 4.653025 32.704466 -0.74754
2004-08-25 06:28:03 51°13.612 2°56.053 22.071504 4.653025 32.703414 -0.814958
2004-08-25 06:28:08 51°13.611 2°56.055 21.964213 4.653025 32.703414 -0.814958
2004-08-25 06:28:12 51°13.611 2°56.056 21.964213 4.653025 32.703414 -0.814958
2004-08-25 06:28:18 51°13.612 2°56.056 21.984638 4.653025 32.70394 -0.814958
2004-08-25 06:28:23 51°13.613 2°56.055 21.969133 4.65292 32.703635 -0.74754
2004-08-25 06:28:27 51°13.613 2°56.053 21.984402 4.653025 32.705517 -0.814958
2004-08-25 06:28:30 51°13.614 2°56.052 21.986487 4.65292 32.705738 -0.781249
2004-08-25 06:28:37 51°13.616 2°56.047 21.971494 4.65292 32.705738 -0.814958
2004-08-25 06:28:43 51°13.618 2°56.042 21.971494 4.65292 32.705738 -0.814958
2004-08-25 06:28:48 51°13.62 2°56.036 21.986487 4.65292 32.706264 -0.74754
2004-08-25 06:28:53 51°13.622 2°56.031 21.996008 4.652709 32.704604 -0.781249
2004-08-25 06:28:58 51°13.624 2°56.025 22.001713 4.652709 32.705129 -0.814958
2004-08-25 06:29:03 51°13.626 2°56.018 21.99593 4.652709 32.704604 -0.814958
2004-08-25 06:29:07 51°13.628 2°56.013 22.001909 4.652709 32.704604 -0.781249
2004-08-25 06:29:11 51°13.63 2°56.008 22.001909 4.652709 32.704604 -0.781249
2004-08-25 06:29:18 51°13.633 2°55.998 22.007338 4.652709 32.704604 -0.814958
2004-08-25 06:29:23 51°13.636 2°55.991 22.01072 4.652814 32.70596 -0.74754
2004-08-25 06:29:28 51°13.638 2°55.983 22.018469 4.652603 32.704825 -0.814958
2004-08-25 06:29:31 51°13.64 2°55.979 22.01957 4.652498 32.70452 -0.781249
2004-08-25 06:29:38 51°13.644 2°55.967 22.015086 4.652498 32.705046 -0.781249
2004-08-25 06:29:43 51°13.647 2°55.959 22.015086 4.652498 32.705046 -0.781249
2004-08-25 06:29:47 51°13.649 2°55.952 22.019688 4.652498 32.705572 -0.74754
2004-08-25 06:29:51 51°13.652 2°55.945 22.018783 4.652392 32.704742 -0.781249
2004-08-25 06:29:58 51°13.656 2°55.932 22.015558 4.652498 32.706098 -0.781249
2004-08-25 06:30:03 51°13.658 2°55.923 22.015401 4.652498 32.705572 -0.781249
2004-08-25 06:30:08 51°13.661 2°55.913 22.015086 4.652392 32.704216 -0.814958
2004-08-25 06:30:12 51°13.662 2°55.905 22.015086 4.652392 32.704216 -0.814958
2004-08-25 06:30:18 51°13.665 2°55.894 22.015401 4.652392 32.704742 -0.781249
2004-08-25 06:30:22 51°13.667 2°55.886 22.014536 4.652287 32.703911 -0.781249
2004-08-25 06:30:28 51°13.668 2°55.873 22.013159 4.652287 32.704437 -0.814958
2004-08-25 06:30:33 51°13.67 2°55.863 22.014378 4.652287 32.704963 -0.781249
2004-08-25 06:30:38 51°13.671 2°55.853 22.029834 4.652287 32.705489 -0.781249
2004-08-25 06:30:43 51°13.671 2°55.844 22.029834 4.652287 32.705489 -0.781249
2004-08-25 06:30:47 51°13.671 2°55.836 22.024682 4.652181 32.704133 -0.814958
2004-08-25 06:30:52 51°13.672 2°55.827 22.034906 4.652181 32.704659 -0.814958
2004-08-25 06:30:58 51°13.672 2°55.817 22.030188 4.652076 32.703828 -0.74754
2004-08-25 06:31:02 51°13.672 2°55.81 22.026491 4.652076 32.703828 -0.814958
2004-08-25 06:31:07 51°13.672 2°55.802 22.025705 4.652076 32.703828 -0.814958
2004-08-25 06:31:10 51°13.672 2°55.797 22.025705 4.652076 32.703828 -0.814958
2004-08-25 06:31:17 51°13.671 2°55.787 22.022991 4.652076 32.703828 -0.781249
2004-08-25 06:31:22 51°13.671 2°55.779 22.033334 4.652181 32.704659 -0.74754
2004-08-25 06:31:27 51°13.67 2°55.772 22.025901 4.65197 32.703524 -0.781249
2004-08-25 06:31:30 51°13.67 2°55.769 22.027317 4.65197 32.703524 -0.781249
2004-08-25 06:31:36 51°13.67 2°55.764 22.057315 4.65197 32.70405 -0.781249
2004-08-25 06:31:42 51°13.67 2°55.761 22.057315 4.65197 32.70405 -0.781249
2004-08-25 06:31:47 51°13.671 2°55.761 22.102622 4.65197 32.704575 -0.814958
2004-08-25 06:31:50 51°13.672 2°55.762 22.141855 4.651759 32.702915 -0.814958
2004-08-25 06:31:56 51°13.675 2°55.764 22.167684 4.651759 32.703441 -0.781249
2004-08-25 06:32:02 51°13.68 2°55.766 22.186363 4.651865 32.705323 -0.781249
2004-08-25 06:32:07 51°13.685 2°55.767 22.188011 4.651759 32.705544 -0.814958
2004-08-25 06:32:11 51°13.69 2°55.766 22.188011 4.651759 32.705544 -0.814958
2004-08-25 06:32:14 51°13.693 2°55.765 22.190915 4.651865 32.7069 -0.781249
2004-08-25 06:32:22 51°13.703 2°55.76 22.167763 4.651654 32.706817 -0.781249
2004-08-25 06:32:26 51°13.708 2°55.757 22.174395 4.651759 32.7087 -0.781249
2004-08-25 06:32:35 51°13.718 2°55.746 22.085022 4.651759 32.7087 -0.814958
2004-08-25 06:32:42 51°13.727 2°55.735 22.085022 4.651759 32.7087 -0.814958
2004-08-25 06:32:47 51°13.733 2°55.727 22.072565 4.651759 32.707648 -0.814958
2004-08-25 06:32:52 51°13.741 2°55.719 22.041237 4.651759 32.706596 -0.814958
2004-08-25 06:32:57 51°13.748 2°55.71 21.98692 4.651654 32.704714 -0.781249
2004-08-25 06:33:02 51°13.756 2°55.701 21.98393 4.651654 32.703662 -0.814958
2004-08-25 06:33:06 51°13.763 2°55.693 21.994513 4.651548 32.702831 -0.781249
2004-08-25 06:33:09 51°13.768 2°55.688 21.994513 4.651548 32.702831 -0.781249
2004-08-25 06:33:15 51°13.779 2°55.676 21.990894 4.651654 32.703662 -0.781249
2004-08-25 06:33:21 51°13.791 2°55.665 21.981411 4.651548 32.703357 -0.781249
2004-08-25 06:33:26 51°13.801 2°55.655 22.003325 4.651443 32.703053 -0.781249
2004-08-25 06:33:30 51°13.809 2°55.647 21.996677 4.651443 32.703579 -0.781249
2004-08-25 06:33:36 51°13.822 2°55.635 21.982788 4.651443 32.704105 -0.781249
2004-08-25 06:33:42 51°13.834 2°55.624 21.982788 4.651443 32.704105 -0.781249
2004-08-25 06:33:46 51°13.843 2°55.617 21.960199 4.651443 32.704105 -0.781249
2004-08-25 06:33:52 51°13.857 2°55.607 21.956538 4.651443 32.704631 -0.814958
2004-08-25 06:33:57 51°13.868 2°55.598 21.997897 4.651337 32.704326 -0.781249
2004-08-25 06:34:02 51°13.88 2°55.59 21.9929 4.651337 32.704852 -0.781249
2004-08-25 06:34:07 51°13.892 2°55.581 22.010091 4.651337 32.705378 -0.814958
2004-08-25 06:34:12 51°13.903 2°55.572 22.010091 4.651337 32.705378 -0.814958
2004-08-25 06:34:17 51°13.915 2°55.564 22.024525 4.651232 32.705599 -0.814958
2004-08-25 06:34:22 51°13.927 2°55.555 22.020317 4.651337 32.70643 -0.781249
2004-08-25 06:34:26 51°13.937 2°55.548 22.010799 4.651232 32.706125 -0.781249
2004-08-25 06:34:30 51°13.947 2°55.542 22.025587 4.651127 32.705821 -0.781249
2004-08-25 06:34:37 51°13.964 2°55.53 21.992546 4.651127 32.706347 -0.814958
2004-08-25 06:34:42 51°13.976 2°55.522 21.992546 4.651127 32.706347 -0.814958
2004-08-25 06:34:46 51°13.985 2°55.515 22.049453 4.651021 32.706569 -0.781249
2004-08-25 06:34:50 51°13.995 2°55.508 22.031761 4.651021 32.706043 -0.781249
2004-08-25 06:34:57 51°14.012 2°55.496 22.032429 4.651021 32.706569 -0.781249
2004-08-25 06:35:02 51°14.025 2°55.488 22.00663 4.651021 32.706043 -0.781249
2004-08-25 06:35:06 51°14.034 2°55.481 22.021694 4.650916 32.704686 -0.781249
2004-08-25 06:35:12 51°14.049 2°55.47 22.021694 4.650916 32.704686 -0.781249
2004-08-25 06:35:14 51°14.054 2°55.467 22.028222 4.650916 32.705738 -0.814958
2004-08-25 06:35:22 51°14.074 2°55.453 22.004938 4.650916 32.704686 -0.781249
2004-08-25 06:35:27 51°14.086 2°55.445 22.025312 4.650916 32.705738 -0.781249
2004-08-25 06:35:30 51°14.094 2°55.44 22.027081 4.65081 32.704907 -0.781249
2004-08-25 06:35:36 51°14.109 2°55.429 22.051969 4.65081 32.704907 -0.814958
2004-08-25 06:35:42 51°14.125 2°55.418 22.051969 4.65081 32.704907 -0.814958
2004-08-25 06:35:46 51°14.136 2°55.409 22.041787 4.65081 32.70596 -0.781249
2004-08-25 06:35:50 51°14.146 2°55.401 22.084432 4.65081 32.706486 -0.781249
2004-08-25 06:35:56 51°14.162 2°55.387 22.066984 4.650705 32.706181 -0.814958
2004-08-25 06:36:02 51°14.178 2°55.373 22.047841 4.650705 32.705655 -0.814958
2004-08-25 06:36:07 51°14.191 2°55.359 22.089697 4.650705 32.705655 -0.781249
2004-08-25 06:36:11 51°14.201 2°55.349 22.089697 4.650705 32.705655 -0.781249
2004-08-25 06:36:17 51°14.217 2°55.331 22.09618 4.650599 32.705351 -0.781249
2004-08-25 06:36:22 51°14.229 2°55.315 22.090483 4.650599 32.705351 -0.781249
2004-08-25 06:36:26 51°14.239 2°55.302 22.104547 4.650494 32.705046 -0.814958
2004-08-25 06:36:31 51°14.251 2°55.285 22.075512 4.650599 32.705877 -0.814958
2004-08-25 06:36:34 51°14.258 2°55.274 22.104901 4.650599 32.706403 -0.814958
2004-08-25 06:36:42 51°14.276 2°55.244 22.104901 4.650599 32.706403 -0.814958
2004-08-25 06:36:46 51°14.285 2°55.228 22.10164 4.650599 32.706403 -0.781249
2004-08-25 06:36:52 51°14.298 2°55.204 22.056765 4.650494 32.706098 -0.781249
2004-08-25 06:36:57 51°14.309 2°55.184 22.012097 4.650388 32.704742 -0.781249
2004-08-25 06:37:03 51°14.322 2°55.159 22.053227 4.650494 32.705572 -0.781249
2004-08-25 06:37:07 51°14.33 2°55.142 22.085729 4.650494 32.706624 -0.814958
2004-08-25 06:37:12 51°14.341 2°55.121 22.085729 4.650494 32.706624 -0.814958
2004-08-25 06:37:17 51°14.351 2°55.099 22.053659 4.650599 32.706929 -0.781249
2004-08-25 06:37:22 51°14.361 2°55.078 22.010799 4.650599 32.706403 -0.781249
2004-08-25 06:37:27 51°14.372 2°55.057 22.007259 4.650177 32.70308 -0.814958
2004-08-25 06:37:30 51°14.379 2°55.045 21.98991 4.650177 32.703606 -0.781249
2004-08-25 06:37:37 51°14.395 2°55.018 21.990382 4.650494 32.706098 -0.781249
2004-08-25 06:37:42 51°14.408 2°54.999 21.990382 4.650494 32.706098 -0.781249
2004-08-25 06:37:46 51°14.418 2°54.985 21.996048 4.650283 32.704963 -0.781249
2004-08-25 06:37:50 51°14.428 2°54.971 21.999431 4.650388 32.705794 -0.781249
2004-08-25 06:37:57 51°14.447 2°54.947 22.063919 4.650494 32.707151 -0.814958
2004-08-25 06:38:02 51°14.46 2°54.928 22.083568 4.650388 32.707372 -0.814958
2004-08-25 06:38:07 51°14.473 2°54.91 22.070678 4.650177 32.706237 -0.781249
2004-08-25 06:38:10 51°14.481 2°54.898 22.070678 4.650177 32.706237 -0.781249
2004-08-25 06:38:17 51°14.501 2°54.872 22.083568 4.650177 32.706237 -0.781249
2004-08-25 06:38:22 51°14.514 2°54.853 22.07787 4.649861 32.703219 -0.781249
2004-08-25 06:38:27 51°14.528 2°54.835 22.037069 4.650388 32.707372 -0.781249
2004-08-25 06:38:30 51°14.536 2°54.823 22.062464 4.650177 32.706237 -0.781249
2004-08-25 06:38:37 51°14.556 2°54.797 22.032311 4.649966 32.70405 -0.781249
2004-08-25 06:38:42 51°14.57 2°54.779 22.032311 4.649966 32.70405 -0.781249
2004-08-25 06:38:47 51°14.585 2°54.761 22.055507 4.649966 32.704576 -0.781249
2004-08-25 06:38:51 51°14.596 2°54.746 22.036047 4.650072 32.705933 -0.781249
2004-08-25 06:38:57 51°14.614 2°54.725 22.078499 4.649755 32.704493 -0.814958
2004-08-25 06:39:02 51°14.629 2°54.707 22.052126 4.650283 32.708647 -0.781249
2004-08-25 06:39:06 51°14.641 2°54.693 22.049375 4.649966 32.706154 -0.781249
2004-08-25 06:39:09 51°14.65 2°54.682 22.049375 4.649966 32.706154 -0.781249
2004-08-25 06:39:17 51°14.674 2°54.654 22.068045 4.649755 32.705019 -0.781249
2004-08-25 06:39:22 51°14.689 2°54.637 22.083804 4.649755 32.705019 -0.74754
2004-08-25 06:39:27 51°14.704 2°54.619 22.072526 4.649966 32.706681 -0.814958
2004-08-25 06:39:30 51°14.713 2°54.609 22.07225 4.649755 32.705019 -0.814958
2004-08-25 06:39:37 51°14.734 2°54.584 22.087261 4.649966 32.706681 -0.814958
2004-08-25 06:39:42 51°14.748 2°54.566 22.087261 4.649966 32.706681 -0.814958
2004-08-25 06:39:46 51°14.76 2°54.552 22.068674 4.649755 32.705545 -0.781249
2004-08-25 06:39:51 51°14.775 2°54.534 22.058298 4.649755 32.705545 -0.781249
2004-08-25 06:39:54 51°14.784 2°54.524 22.109693 4.649544 32.703884 -0.781249
2004-08-25 06:40:03 51°14.811 2°54.492 22.069342 4.649755 32.706071 -0.781249
2004-08-25 06:40:07 51°14.823 2°54.478 22.050986 4.649966 32.707733 -0.814958
2004-08-25 06:40:12 51°14.838 2°54.461 22.050986 4.649966 32.707733 -0.814958
2004-08-25 06:40:14 51°14.844 2°54.454 22.058219 4.649755 32.706071 -0.781249
2004-08-25 06:40:21 51°14.865 2°54.429 22.057826 4.649439 32.704105 -0.74754
2004-08-25 06:40:26 51°14.88 2°54.412 22.079403 4.649544 32.705462 -0.814958
2004-08-25 06:40:30 51°14.893 2°54.399 22.097987 4.649439 32.704105 -0.814958
2004-08-25 06:40:37 51°14.914 2°54.376 22.049453 4.649755 32.707124 -0.814958
2004-08-25 06:40:42 51°14.93 2°54.36 22.049453 4.649755 32.707124 -0.814958
2004-08-25 06:40:46 51°14.942 2°54.347 22.067495 4.649333 32.703801 -0.814958
2004-08-25 06:40:50 51°14.955 2°54.334 22.071347 4.649544 32.705989 -0.814958
2004-08-25 06:40:56 51°14.973 2°54.315 22.074805 4.649333 32.704327 -0.814958
2004-08-25 06:41:02 51°14.992 2°54.294 22.081171 4.649544 32.706515 -0.814958
2004-08-25 06:41:06 51°15.004 2°54.281 22.063447 4.649544 32.705462 -0.781249
2004-08-25 06:41:10 51°15.016 2°54.268 22.063447 4.649544 32.705462 -0.781249
2004-08-25 06:41:16 51°15.035 2°54.248 22.066513 4.649439 32.705158 -0.814958
2004-08-25 06:41:22 51°15.054 2°54.228 22.054092 4.64965 32.707346 -0.814958
2004-08-25 06:41:27 51°15.069 2°54.212 22.074058 4.64965 32.706819 -0.781249
2004-08-25 06:41:29 51°15.076 2°54.206 22.038248 4.649861 32.709534 -0.781249
2004-08-25 06:41:35 51°15.095 2°54.186 22.09838 4.649228 32.705075 -0.814958
2004-08-25 06:41:42 51°15.117 2°54.164 22.09838 4.649228 32.705075 -0.814958
2004-08-25 06:41:47 51°15.133 2°54.148 22.036794 4.649439 32.707263 -0.814958
2004-08-25 06:41:50 51°15.143 2°54.138 22.052048 4.649122 32.704244 -0.781249
2004-08-25 06:41:56 51°15.162 2°54.119 22.085022 4.649333 32.705906 -0.814958
2004-08-25 06:42:02 51°15.181 2°54.1 22.04163 4.649333 32.706432 -0.781249
2004-08-25 06:42:06 51°15.193 2°54.087 22.060499 4.649122 32.704771 -0.781249
2004-08-25 06:42:10 51°15.206 2°54.074 22.060499 4.649122 32.704771 -0.781249
2004-08-25 06:42:16 51°15.225 2°54.054 22.06781 4.649439 32.707789 -0.781249
2004-08-25 06:42:22 51°15.244 2°54.036 22.034867 4.649439 32.706737 -0.781249
2004-08-25 06:42:27 51°15.261 2°54.02 22.049689 4.649122 32.704771 -0.781249
2004-08-25 06:42:29 51°15.267 2°54.014 22.069892 4.649228 32.706128 -0.814958
2004-08-25 06:42:35 51°15.287 2°53.996 22.067299 4.648595 32.701143 -0.814958
2004-08-25 06:42:42 51°15.31 2°53.975 22.067299 4.648595 32.701143 -0.814958
2004-08-25 06:42:46 51°15.323 2°53.963 22.067888 4.649017 32.705519 -0.781249
2004-08-25 06:42:52 51°15.342 2°53.945 22.073901 4.648911 32.704688 -0.781249
2004-08-25 06:42:56 51°15.355 2°53.933 22.075591 4.649017 32.705519 -0.74754
2004-08-25 06:43:02 51°15.375 2°53.915 22.08565 4.649228 32.707707 -0.814958
2004-08-25 06:43:06 51°15.388 2°53.903 22.072486 4.649017 32.705519 -0.781249
2004-08-25 06:43:09 51°15.398 2°53.894 22.072486 4.649017 32.705519 -0.781249
2004-08-25 06:43:17 51°15.424 2°53.87 22.084943 4.648911 32.70574 -0.814958
2004-08-25 06:43:22 51°15.441 2°53.855 22.062582 4.649439 32.708842 -0.781249
2004-08-25 06:43:27 51°15.457 2°53.84 22.057551 4.648595 32.703774 -0.814958
2004-08-25 06:43:32 51°15.474 2°53.825 22.084354 4.649122 32.707402 -0.814958
2004-08-25 06:43:40 51°15.5 2°53.802 22.058455 4.649228 32.707707 -0.781249
2004-08-25 06:43:42 51°15.506 2°53.796 22.058455 4.649228 32.707707 -0.781249
2004-08-25 06:43:47 51°15.523 2°53.781 22.053738 4.648489 32.702943 -0.814958
2004-08-25 06:43:53 51°15.542 2°53.763 22.066984 4.648911 32.706267 -0.781249
2004-08-25 06:43:57 51°15.555 2°53.751 22.061364 4.6487 32.705131 -0.781249
2004-08-25 06:44:02 51°15.572 2°53.736 22.063054 4.649017 32.707098 -0.74754
2004-08-25 06:44:06 51°15.585 2°53.724 22.067063 4.6487 32.705131 -0.781249
2004-08-25 06:44:13 51°15.608 2°53.703 22.067063 4.6487 32.705131 -0.781249
2004-08-25 06:44:15 51°15.614 2°53.696 22.106668 4.648595 32.704827 -0.781249
2004-08-25 06:44:22 51°15.637 2°53.675 22.063604 4.649017 32.708151 -0.781249
2004-08-25 06:44:26 51°15.65 2°53.663 22.089029 4.648489 32.703996 -0.781249
2004-08-25 06:44:33 51°15.673 2°53.642 22.068753 4.64849 32.704522 -0.781249
2004-08-25 06:44:35 51°15.68 2°53.636 22.054367 4.648911 32.707846 -0.814958
2004-08-25 06:44:42 51°15.703 2°53.617 22.054367 4.648911 32.707846 -0.814958
2004-08-25 06:44:45 51°15.713 2°53.608 22.039467 4.648595 32.704827 -0.814958
2004-08-25 06:44:53 51°15.74 2°53.587 22.059674 4.648384 32.703165 -0.781249
2004-08-25 06:44:57 51°15.754 2°53.577 22.070954 4.648384 32.704218 -0.781249
2004-08-25 06:45:02 51°15.771 2°53.564 22.06329 4.648701 32.706711 -0.781249
2004-08-25 06:45:07 51°15.788 2°53.551 22.090404 4.648595 32.706406 -0.781249
2004-08-25 06:45:13 51°15.81 2°53.537 22.090404 4.648595 32.706406 -0.781249
2004-08-25 06:45:17 51°15.823 2°53.526 22.064823 4.648595 32.706932 -0.781249
2004-08-25 06:45:22 51°15.84 2°53.514 22.076573 4.648384 32.704744 -0.814958
2004-08-25 06:45:26 51°15.854 2°53.504 22.073194 4.648595 32.706932 -0.781249
2004-08-25 06:45:32 51°15.875 2°53.489 22.061364 4.648279 32.704439 -0.781249
2004-08-25 06:45:37 51°15.893 2°53.476 22.09178 4.648384 32.705797 -0.781249
2004-08-25 06:45:42 51°15.91 2°53.464 22.09178 4.648384 32.705797 -0.781249
2004-08-25 06:45:46 51°15.924 2°53.455 22.052519 4.648384 32.70527 -0.814958
2004-08-25 06:45:52 51°15.945 2°53.439 22.109025 4.648173 32.705188 -0.781249
2004-08-25 06:45:57 51°15.962 2°53.427 22.078027 4.648806 32.709647 -0.814958
2004-08-25 06:46:02 51°15.979 2°53.415 22.079953 4.648068 32.704357 -0.781249
2004-08-25 06:46:07 51°15.996 2°53.402 22.06667 4.648595 32.707985 -0.814958
2004-08-25 06:46:13 51°16.017 2°53.387 22.06667 4.648595 32.707985 -0.814958
2004-08-25 06:46:17 51°16.031 2°53.377 22.073587 4.648173 32.704661 -0.781249
2004-08-25 06:46:22 51°16.048 2°53.364 22.071111 4.648173 32.705188 -0.814958
2004-08-25 06:46:26 51°16.062 2°53.354 22.105372 4.648068 32.704357 -0.814958
2004-08-25 06:46:32 51°16.083 2°53.339 22.091387 4.647857 32.703748 -0.814958
2004-08-25 06:46:37 51°16.1 2°53.326 22.099244 4.648173 32.706241 -0.814958
2004-08-25 06:46:42 51°16.117 2°53.315 22.099244 4.648173 32.706241 -0.814958
2004-08-25 06:46:47 51°16.135 2°53.303 22.055507 4.648384 32.70685 -0.781249
2004-08-25 06:46:52 51°16.152 2°53.292 22.069735 4.648068 32.70541 -0.781249
2004-08-25 06:46:57 51°16.17 2°53.281 22.073665 4.648173 32.706241 -0.781249
2004-08-25 06:47:02 51°16.188 2°53.271 22.078027 4.648279 32.706545 -0.781249
2004-08-25 06:47:06 51°16.203 2°53.263 22.076338 4.647962 32.704579 -0.814958
2004-08-25 06:47:13 51°16.228 2°53.248 22.076338 4.647962 32.704579 -0.814958
2004-08-25 06:47:15 51°16.235 2°53.244 22.094019 4.648279 32.707072 -0.814958
2004-08-25 06:47:23 51°16.264 2°53.227 22.094412 4.648068 32.705936 -0.814958
2004-08-25 06:47:25 51°16.271 2°53.223 22.080031 4.647962 32.705632 -0.781249
2004-08-25 06:47:33 51°16.3 2°53.207 22.096769 4.647857 32.704274 -0.781249
2004-08-25 06:47:37 51°16.314 2°53.198 22.10769 4.647646 32.703138 -0.781249
2004-08-25 06:47:42 51°16.332 2°53.187 22.10769 4.647646 32.703138 -0.781249
2004-08-25 06:47:46 51°16.346 2°53.178 22.081328 4.648173 32.70782 -0.781249
2004-08-25 06:47:53 51°16.371 2°53.164 22.067495 4.647857 32.705327 -0.781249
2004-08-25 06:47:58 51°16.389 2°53.153 22.095551 4.647962 32.706685 -0.781249
2004-08-25 06:48:02 51°16.404 2°53.145 22.110282 4.647751 32.704496 -0.74754
2004-08-25 06:48:05 51°16.415 2°53.138 22.0851 4.647857 32.70638 -0.781249
2004-08-25 06:48:12 51°16.439 2°53.123 22.0851 4.647857 32.70638 -0.781249
2004-08-25 06:48:17 51°16.457 2°53.112 22.090404 4.647646 32.704718 -0.848668
2004-08-25 06:48:22 51°16.475 2°53.101 22.076102 4.647857 32.70638 -0.814958
2004-08-25 06:48:27 51°16.493 2°53.089 22.087261 4.647857 32.705854 -0.781249
2004-08-25 06:48:32 51°16.51 2°53.079 22.086633 4.647962 32.706685 -0.781249
2004-08-25 06:48:37 51°16.528 2°53.067 22.070718 4.647646 32.704718 -0.781249
2004-08-25 06:48:42 51°16.546 2°53.057 22.079874 4.647857 32.706907 -0.814958
2004-08-25 06:48:47 51°16.563 2°53.045 22.079874 4.647857 32.706907 -0.814958
2004-08-25 06:48:53 51°16.585 2°53.032 22.079874 4.647646 32.704718 -0.814958
2004-08-25 06:48:57 51°16.599 2°53.023 22.078184 4.647962 32.708264 -0.781249
2004-08-25 06:49:02 51°16.617 2°53.012 22.077713 4.647646 32.705771 -0.781249
2004-08-25 06:49:06 51°16.631 2°53.003 22.083882 4.648068 32.709096 -0.814958
2004-08-25 06:49:13 51°16.655 2°52.986 22.083882 4.648068 32.709096 -0.814958
2004-08-25 06:49:17 51°16.669 2°52.977 22.110086 4.64754 32.705466 -0.814958
2004-08-25 06:49:22 51°16.686 2°52.965 22.081092 4.647646 32.706298 -0.814958
2004-08-25 06:49:27 51°16.704 2°52.954 22.080267 4.647751 32.707129 -0.781249
2004-08-25 06:49:33 51°16.725 2°52.941 22.095158 4.64754 32.705466 -0.781249
2004-08-25 06:49:37 51°16.739 2°52.932 22.081642 4.647751 32.707655 -0.781249
2004-08-25 06:49:43 51°16.76 2°52.918 22.081642 4.647751 32.707655 -0.781249
2004-08-25 06:49:46 51°16.77 2°52.911 22.085965 4.647646 32.706824 -0.781249
2004-08-25 06:49:53 51°16.794 2°52.894 22.107533 4.647435 32.706215 -0.781249
2004-08-25 06:49:57 51°16.808 2°52.886 22.086397 4.647646 32.706824 -0.814958
2004-08-25 06:50:02 51°16.826 2°52.874 22.108161 4.64754 32.70652 -0.781249
2004-08-25 06:50:06 51°16.839 2°52.865 22.048667 4.64754 32.70652 -0.781249
2004-08-25 06:50:12 51°16.86 2°52.851 22.048667 4.64754 32.70652 -0.781249
2004-08-25 06:50:17 51°16.878 2°52.84 22.104233 4.646907 32.702586 -0.781249
2004-08-25 06:50:22 51°16.895 2°52.83 22.069264 4.647118 32.703721 -0.814958
2004-08-25 06:50:27 51°16.913 2°52.818 22.121751 4.647224 32.705079 -0.814958
2004-08-25 06:50:33 51°16.934 2°52.805 22.07398 4.64754 32.707046 -0.781249
2004-08-25 06:50:37 51°16.948 2°52.795 22.094255 4.64754 32.707573 -0.74754
2004-08-25 06:50:42 51°16.965 2°52.784 22.094255 4.64754 32.707573 -0.74754
2004-08-25 06:50:45 51°16.975 2°52.777 22.076966 4.647435 32.706215 -0.781249
2004-08-25 06:50:53 51°17.004 2°52.759 22.114681 4.647329 32.70591 -0.781249
2004-08-25 06:50:57 51°17.018 2°52.749 22.091033 4.64754 32.708626 -0.781249
2004-08-25 06:51:02 51°17.035 2°52.737 22.079481 4.647329 32.706437 -0.74754
2004-08-25 06:51:07 51°17.053 2°52.727 22.096926 4.646485 32.700841 -0.781249
2004-08-25 06:51:11 51°17.067 2°52.717 22.096926 4.646485 32.700841 -0.781249
2004-08-25 06:51:17 51°17.088 2°52.704 22.113974 4.647435 32.707795 -0.814958
2004-08-25 06:51:21 51°17.102 2°52.695 22.075276 4.647118 32.705301 -0.814958
2004-08-25 06:51:27 51°17.123 2°52.681 22.113817 4.647435 32.707268 -0.781249
2004-08-25 06:51:33 51°17.145 2°52.669 22.080974 4.647329 32.706964 -0.814958
2004-08-25 06:51:37 51°17.159 2°52.659 22.079128 4.647118 32.705828 -0.814958
2004-08-25 06:51:42 51°17.176 2°52.649 22.079128 4.647118 32.705828 -0.814958
2004-08-25 06:51:45 51°17.187 2°52.641 22.085886 4.646802 32.703334 -0.781249
2004-08-25 06:51:53 51°17.215 2°52.624 22.084039 4.647118 32.706355 -0.814958
2004-08-25 06:51:58 51°17.233 2°52.613 22.093312 4.647329 32.70749 -0.781249
2004-08-25 06:52:02 51°17.247 2°52.604 22.096258 4.647013 32.705523 -0.814958
2004-08-25 06:52:05 51°17.257 2°52.597 22.085257 4.647118 32.707408 -0.814958
2004-08-25 06:52:12 51°17.282 2°52.581 22.085257 4.647118 32.707408 -0.814958
2004-08-25 06:52:15 51°17.292 2°52.573 22.10875 4.647118 32.706881 -0.814958
2004-08-25 06:52:22 51°17.316 2°52.553 22.133139 4.647013 32.707103 -0.781249
2004-08-25 06:52:26 51°17.329 2°52.542 22.109693 4.647224 32.709293 -0.781249
2004-08-25 06:52:33 51°17.352 2°52.521 22.120062 4.646802 32.705968 -0.814958
2004-08-25 06:52:37 51°17.364 2°52.508 22.089187 4.646907 32.706272 -0.814958
2004-08-25 06:52:42 51°17.38 2°52.492 22.089187 4.646907 32.706272 -0.814958
2004-08-25 06:52:46 51°17.393 2°52.48 22.106983 4.647329 32.709071 -0.74754
2004-08-25 06:52:53 51°17.414 2°52.456 22.111775 4.646591 32.704305 -0.781249
2004-08-25 06:52:58 51°17.428 2°52.438 22.126267 4.647118 32.707408 -0.781249
2004-08-25 06:53:02 51°17.439 2°52.422 22.120219 4.646907 32.707326 -0.74754
2004-08-25 06:53:05 51°17.447 2°52.411 22.121751 4.646907 32.707852 -0.74754
2004-08-25 06:53:13 51°17.468 2°52.379 22.121751 4.646907 32.707852 -0.74754
2004-08-25 06:53:17 51°17.478 2°52.363 22.110753 4.64754 32.71284 -0.781249
2004-08-25 06:53:22 51°17.49 2°52.342 22.116606 4.646802 32.707548 -0.781249
2004-08-25 06:53:25 51°17.498 2°52.329 22.104862 4.647013 32.708684 -0.781249
2004-08-25 06:53:33 51°17.516 2°52.295 22.105451 4.647013 32.70763 -0.781249
2004-08-25 06:53:37 51°17.524 2°52.277 22.118059 4.646591 32.705885 -0.781249
2004-08-25 06:53:42 51°17.535 2°52.254 22.118059 4.646591 32.705885 -0.781249
2004-08-25 06:53:45 51°17.541 2°52.24 22.134395 4.646907 32.707852 -0.781249
2004-08-25 06:53:53 51°17.557 2°52.202 22.106001 4.646274 32.702864 -0.781249
2004-08-25 06:53:57 51°17.565 2°52.183 22.120376 4.646591 32.704832 -0.781249
2004-08-25 06:54:02 51°17.575 2°52.16 22.097398 4.646907 32.707852 -0.74754
2004-08-25 06:54:07 51°17.584 2°52.136 22.091387 4.646591 32.705358 -0.781249
2004-08-25 06:54:11 51°17.592 2°52.116 22.091387 4.646591 32.705358 -0.781249
2004-08-25 06:54:17 51°17.605 2°52.088 22.076888 4.646907 32.707852 -0.781249
2004-08-25 06:54:22 51°17.615 2°52.064 22.099087 4.646485 32.704527 -0.781249
2004-08-25 06:54:25 51°17.621 2°52.05 22.09948 4.646485 32.705054 -0.814958
2004-08-25 06:54:32 51°17.635 2°52.016 22.099323 4.646696 32.706716 -0.781249
2004-08-25 06:54:37 51°17.645 2°51.991 22.106079 4.646169 32.70414 -0.781249
2004-08-25 06:54:42 51°17.655 2°51.967 22.106079 4.646169 32.70414 -0.781249
2004-08-25 06:54:47 51°17.665 2°51.943 22.105686 4.64638 32.705803 -0.781249
2004-08-25 06:54:53 51°17.678 2°51.914 22.098694 4.647118 32.710042 -0.781249
2004-08-25 06:54:57 51°17.686 2°51.895 22.106236 4.646169 32.70414 -0.814958
2004-08-25 06:55:02 51°17.696 2°51.871 22.111303 4.646802 32.709128 -0.814958
2004-08-25 06:55:06 51°17.704 2°51.851 22.102622 4.646485 32.707161 -0.781249
2004-08-25 06:55:13 51°17.719 2°51.818 22.102622 4.646485 32.707161 -0.781249
2004-08-25 06:55:17 51°17.727 2°51.798 22.108907 4.646802 32.709655 -0.781249
2004-08-25 06:55:22 51°17.738 2°51.774 22.111225 4.646485 32.707161 -0.781249
2004-08-25 06:55:26 51°17.746 2°51.755 22.105529 4.646485 32.707161 -0.781249
2004-08-25 06:55:31 51°17.756 2°51.731 22.130351 4.646802 32.710182 -0.74754
2004-08-25 06:55:37 51°17.769 2°51.702 22.105922 4.646591 32.709573 -0.781249
2004-08-25 06:55:42 51°17.779 2°51.678 22.105922 4.646591 32.709573 -0.781249
2004-08-25 06:55:46 51°17.787 2°51.659 22.114524 4.646802 32.710709 -0.74754
2004-08-25 06:55:53 51°17.802 2°51.624 22.115899 4.64638 32.70791 -0.814958
2004-08-25 06:55:57 51°17.81 2°51.605 22.112678 4.646064 32.705416 -0.814958
2004-08-25 06:56:02 51°17.82 2°51.581 22.132118 4.64638 32.706856 -0.74754
2004-08-25 06:56:07 51°17.83 2°51.557 22.112442 4.646169 32.706774 -0.781249
2004-08-25 06:56:13 51°17.843 2°51.528 22.112442 4.646169 32.706774 -0.781249
2004-08-25 06:56:17 51°17.851 2°51.508 22.13412 4.646064 32.705416 -0.781249
2004-08-25 06:56:22 51°17.862 2°51.484 22.1126 4.646696 32.709877 -0.781249
2004-08-25 06:56:27 51°17.872 2°51.459 22.126659 4.645853 32.705333 -0.814958
2004-08-25 06:56:33 51°17.884 2°51.431 22.099912 4.646591 32.7101 -0.814958
2004-08-25 06:56:38 51°17.894 2°51.406 22.125481 4.64638 32.708964 -0.781249
2004-08-25 06:56:42 51°17.902 2°51.387 22.125481 4.64638 32.708964 -0.781249
2004-08-25 06:56:46 51°17.91 2°51.367 22.12395 4.645747 32.705029 -0.781249
2004-08-25 06:56:52 51°17.923 2°51.339 22.107218 4.646802 32.711762 -0.814958
2004-08-25 06:56:57 51°17.933 2°51.315 22.135887 4.645642 32.704724 -0.781249
2004-08-25 06:57:02 51°17.943 2°51.291 22.118216 4.646275 32.708659 -0.814958
2004-08-25 06:57:06 51°17.951 2°51.271 22.117273 4.646169 32.707828 -0.781249
2004-08-25 06:57:13 51°17.966 2°51.237 22.117273 4.646169 32.707828 -0.781249
2004-08-25 06:57:17 51°17.974 2°51.218 22.116527 4.646169 32.707301 -0.74754
2004-08-25 06:57:22 51°17.984 2°51.193 22.122379 4.645958 32.705638 -0.814958
2004-08-25 06:57:26 51°17.993 2°51.174 22.112757 4.646064 32.706996 -0.814958
2004-08-25 06:57:33 51°18.008 2°51.141 22.123596 4.645642 32.70367 -0.781249
2004-08-25 06:57:34 51°18.01 2°51.137 22.125403 4.646591 32.711153 -0.781249
2004-08-25 06:57:43 51°18.03 2°51.094 22.125403 4.646591 32.711153 -0.781249
2004-08-25 06:57:45 51°18.034 2°51.085 22.117116 4.645747 32.706082 -0.781249
2004-08-25 06:57:53 51°18.051 2°51.047 22.12607 4.645642 32.705251 -0.781249
2004-08-25 06:57:57 51°18.059 2°51.027 22.132275 4.645642 32.706305 -0.814958
2004-08-25 06:58:02 51°18.07 2°51.004 22.118648 4.646275 32.709186 -0.781249
2004-08-25 06:58:07 51°18.081 2°50.98 22.129133 4.645747 32.706609 -0.781249
2004-08-25 06:58:11 51°18.089 2°50.961 22.129133 4.645747 32.706609 -0.781249
2004-08-25 06:58:17 51°18.102 2°50.932 22.118609 4.646275 32.709713 -0.781249
2004-08-25 06:58:22 51°18.113 2°50.908 22.133963 4.645747 32.706082 -0.814958
2004-08-25 06:58:27 51°18.123 2°50.884 22.128269 4.645642 32.706305 -0.814958
2004-08-25 06:58:33 51°18.136 2°50.856 22.14794 4.645747 32.706082 -0.814958
2004-08-25 06:58:37 51°18.144 2°50.836 22.131254 4.645853 32.707968 -0.814958
2004-08-25 06:58:42 51°18.155 2°50.812 22.131254 4.645853 32.707968 -0.814958
2004-08-25 06:58:47 51°18.165 2°50.788 22.125678 4.646064 32.709104 -0.781249
2004-08-25 06:58:52 51°18.176 2°50.764 22.125638 4.645536 32.706 -0.814958
2004-08-25 06:58:57 51°18.187 2°50.74 22.1384 4.645431 32.705168 -0.781249
2004-08-25 06:59:00 51°18.193 2°50.726 22.118295 4.645853 32.708495 -0.814958
2004-08-25 06:59:07 51°18.208 2°50.693 22.14637 4.645114 32.703728 -0.781249
2004-08-25 06:59:12 51°18.218 2°50.669 22.14637 4.645114 32.703728 -0.781249
2004-08-25 06:59:17 51°18.228 2°50.644 22.147783 4.646169 32.710989 -0.781249
2004-08-25 06:59:22 51°18.239 2°50.621 22.144171 4.645114 32.705308 -0.814958
2004-08-25 06:59:26 51°18.246 2°50.601 22.152769 4.64522 32.705613 -0.814958
2004-08-25 06:59:30 51°18.254 2°50.582 22.14955 4.645325 32.705391 -0.781249
2004-08-25 06:59:37 51°18.268 2°50.548 22.1309 4.645747 32.708717 -0.781249
2004-08-25 06:59:43 51°18.28 2°50.519 22.1309 4.645747 32.708717 -0.781249
2004-08-25 06:59:46 51°18.286 2°50.504 22.133413 4.645747 32.707663 -0.781249
2004-08-25 06:59:51 51°18.296 2°50.48 22.133806 4.645536 32.706527 -0.781249
2004-08-25 06:59:57 51°18.308 2°50.451 22.144996 4.645853 32.709021 -0.814958
2004-08-25 07:00:03 51°18.32 2°50.421 22.128898 4.645431 32.706749 -0.814958
2004-08-25 07:00:06 51°18.326 2°50.407 22.151905 4.645431 32.707276 -0.781249
2004-08-25 07:00:10 51°18.334 2°50.387 22.151905 4.645431 32.707276 -0.781249
2004-08-25 07:00:18 51°18.35 2°50.348 22.134238 4.645536 32.708108 -0.781249
2004-08-25 07:00:22 51°18.358 2°50.328 22.15532 4.645009 32.705004 -0.781249
2004-08-25 07:00:26 51°18.365 2°50.308 22.142248 4.645853 32.711129 -0.781249
2004-08-25 07:00:32 51°18.377 2°50.279 22.143543 4.644903 32.704699 -0.814958
2004-08-25 07:00:37 51°18.387 2°50.254 22.153161 4.645536 32.708635 -0.781249
2004-08-25 07:00:42 51°18.396 2°50.229 22.153161 4.645536 32.708635 -0.781249
2004-08-25 07:00:47 51°18.405 2°50.204 22.140088 4.645431 32.707803 -0.781249
2004-08-25 07:00:53 51°18.417 2°50.175 22.137536 4.645747 32.709771 -0.814958
2004-08-25 07:00:56 51°18.423 2°50.16 22.143386 4.645114 32.706362 -0.781249
2004-08-25 07:01:02 51°18.434 2°50.13 22.156066 4.645114 32.705835 -0.781249
2004-08-25 07:01:07 51°18.444 2°50.105 22.145231 4.645325 32.707499 -0.781249
2004-08-25 07:01:13 51°18.456 2°50.076 22.145231 4.645325 32.707499 -0.781249
2004-08-25 07:01:17 51°18.463 2°50.056 22.151905 4.644798 32.704395 -0.781249
2004-08-25 07:01:21 51°18.471 2°50.037 22.144878 4.645642 32.709993 -0.814958
2004-08-25 07:01:26 51°18.48 2°50.012 22.14531 4.645642 32.711047 -0.814958
2004-08-25 07:01:32 51°18.492 2°49.983 22.157362 4.645009 32.706585 -0.781249
2004-08-25 07:01:37 51°18.502 2°49.958 22.154889 4.645536 32.710743 -0.781249
2004-08-25 07:01:42 51°18.511 2°49.933 22.154889 4.645536 32.710743 -0.781249
2004-08-25 07:01:46 51°18.519 2°49.914 22.166782 4.645009 32.706058 -0.781249
2004-08-25 07:01:51 51°18.528 2°49.889 22.162857 4.645431 32.709384 -0.781249
2004-08-25 07:01:57 51°18.54 2°49.86 22.150924 4.645325 32.708553 -0.781249
2004-08-25 07:02:02 51°18.55 2°49.835 22.163642 4.644903 32.706807 -0.814958
2004-08-25 07:02:05 51°18.555 2°49.82 22.172315 4.644798 32.705448 -0.814958
2004-08-25 07:02:13 51°18.57 2°49.78 22.172315 4.644798 32.705448 -0.814958
2004-08-25 07:02:15 51°18.574 2°49.77 22.157205 4.644903 32.70628 -0.74754
2004-08-25 07:02:22 51°18.587 2°49.736 22.153946 4.645114 32.707416 -0.781249
2004-08-25 07:02:26 51°18.594 2°49.716 22.162229 4.645325 32.70908 -0.814958
2004-08-25 07:02:33 51°18.608 2°49.682 22.150531 4.645114 32.707943 -0.814958
2004-08-25 07:02:37 51°18.615 2°49.662 22.171099 4.644692 32.705671 -0.781249
2004-08-25 07:02:42 51°18.625 2°49.638 22.171099 4.644692 32.705671 -0.781249
2004-08-25 07:02:46 51°18.632 2°49.618 22.161208 4.645431 32.711492 -0.781249
2004-08-25 07:02:50 51°18.64 2°49.598 22.175219 4.644481 32.705062 -0.781249
2004-08-25 07:02:56 51°18.651 2°49.569 22.164387 4.644903 32.707861 -0.781249
2004-08-25 07:03:02 51°18.663 2°49.54 22.165015 4.644903 32.707334 -0.814958
2004-08-25 07:03:07 51°18.673 2°49.515 22.163956 4.644903 32.707861 -0.814958
2004-08-25 07:03:13 51°18.684 2°49.486 22.161287 4.644798 32.707557 -0.814958
2004-08-25 07:03:17 51°18.692 2°49.466 22.161287 4.644798 32.707557 -0.814958
2004-08-25 07:03:21 51°18.7 2°49.448 22.169411 4.64427 32.704452 -0.781249
2004-08-25 07:03:27 51°18.711 2°49.418 22.177064 4.645009 32.709747 -0.781249
2004-08-25 07:03:29 51°18.714 2°49.408 22.175847 4.644587 32.70642 -0.781249
2004-08-25 07:03:41 51°18.737 2°49.35 22.163602 4.644903 32.708915 -0.814958
2004-08-25 07:03:43 51°18.741 2°49.34 22.16423 4.644798 32.708084 -0.781249
2004-08-25 07:03:50 51°18.754 2°49.306 22.176789 4.64427 32.704452 -0.781249
2004-08-25 07:03:55 51°18.764 2°49.282 22.180556 4.644587 32.70642 -0.781249
2004-08-25 07:03:59 51°18.772 2°49.262 22.180556 4.644587 32.70642 -0.781249
2004-08-25 07:04:05 51°18.783 2°49.233 22.173924 4.644587 32.706947 -0.781249
2004-08-25 07:04:09 51°18.792 2°49.214 22.18809 4.644059 32.703316 -0.781249
2004-08-25 07:04:15 51°18.803 2°49.184 22.180399 4.644798 32.709138 -0.781249
2004-08-25 07:04:21 51°18.815 2°49.155 22.1731 4.644376 32.705811 -0.781249
2004-08-25 07:04:25 51°18.822 2°49.136 22.178908 4.644587 32.707474 -0.814958
2004-08-25 07:04:30 51°18.832 2°49.111 22.176553 4.644481 32.706643 -0.814958
2004-08-25 07:04:32 51°18.836 2°49.101 22.176553 4.644481 32.706643 -0.814958
2004-08-25 07:04:41 51°18.853 2°49.058 22.186913 4.644692 32.708306 -0.814958
2004-08-25 07:04:44 51°18.859 2°49.043 22.174709 4.644798 32.709665 -0.781249
2004-08-25 07:04:50 51°18.871 2°49.014 22.180242 4.644376 32.707392 -0.781249
2004-08-25 07:04:55 51°18.88 2°48.99 22.175062 4.644692 32.70936 -0.814958
2004-08-25 07:04:59 51°18.888 2°48.97 22.175062 4.644692 32.70936 -0.814958
2004-08-25 07:05:05 51°18.9 2°48.941 22.178162 4.644481 32.708224 -0.781249
2004-08-25 07:05:10 51°18.91 2°48.917 22.18346 4.64427 32.706561 -0.781249
2004-08-25 07:05:15 51°18.92 2°48.893 22.18601 4.643954 32.705647 -0.781249
2004-08-25 07:05:20 51°18.93 2°48.869 22.192759 4.644481 32.708751 -0.781249
2004-08-25 07:05:26 51°18.942 2°48.84 22.191699 4.64427 32.707088 -0.781249
2004-08-25 07:05:31 51°18.952 2°48.816 22.191699 4.64427 32.707088 -0.781249
2004-08-25 07:05:33 51°18.956 2°48.806 22.182479 4.64427 32.706561 -0.814958
2004-08-25 07:05:41 51°18.972 2°48.768 22.184245 4.644903 32.712078 -0.74754
2004-08-25 07:05:45 51°18.98 2°48.748 22.190915 4.644165 32.70731 -0.814958
2004-08-25 07:05:50 51°18.989 2°48.724 22.187227 4.644481 32.709278 -0.781249
2004-08-25 07:05:55 51°18.999 2°48.7 22.186442 4.643848 32.704288 -0.814958
2004-08-25 07:05:58 51°19.005 2°48.685 22.186442 4.643848 32.704288 -0.814958
2004-08-25 07:06:05 51°19.019 2°48.652 22.178908 4.644376 32.708974 -0.814958
2004-08-25 07:06:10 51°19.03 2°48.629 22.185147 4.643848 32.704815 -0.814958
2004-08-25 07:06:15 51°19.04 2°48.605 22.205901 4.644059 32.705951 -0.74754
2004-08-25 07:06:27 51°19.062 2°48.547 22.208058 4.644165 32.708892 -0.814958
2004-08-25 07:06:33 51°19.073 2°48.516 22.203625 4.643954 32.707228 -0.814958
2004-08-25 07:06:37 51°19.079 2°48.496 22.196996 4.644481 32.711387 -0.781249
2004-08-25 07:06:42 51°19.087 2°48.472 22.192837 4.644481 32.711387 -0.781249
2004-08-25 07:06:46 51°19.093 2°48.451 22.192837 4.644481 32.711387 -0.781249
2004-08-25 07:06:50 51°19.099 2°48.431 22.198996 4.643743 32.706092 -0.781249
2004-08-25 07:06:57 51°19.11 2°48.395 22.194603 4.64427 32.708669 -0.781249
2004-08-25 07:07:01 51°19.116 2°48.375 22.192445 4.643954 32.707228 -0.781249
2004-08-25 07:07:05 51°19.122 2°48.355 22.200134 4.643637 32.70526 -0.781249
2004-08-25 07:07:13 51°19.134 2°48.315 22.196368 4.644376 32.710028 -0.781249
2004-08-25 07:07:17 51°19.141 2°48.294 22.196368 4.644376 32.710028 -0.781249
2004-08-25 07:07:21 51°19.147 2°48.274 22.198055 4.644165 32.708892 -0.781249
2004-08-25 07:07:26 51°19.155 2°48.249 22.205548 4.643743 32.706092 -0.781249
2004-08-25 07:07:33 51°19.166 2°48.213 22.194916 4.64427 32.710251 -0.814958
2004-08-25 07:07:37 51°19.172 2°48.193 22.201625 4.643848 32.707978 -0.74754
2004-08-25 07:07:42 51°19.18 2°48.167 22.201625 4.643848 32.707978 -0.74754
2004-08-25 07:07:46 51°19.186 2°48.147 22.198369 4.643954 32.70881 -0.781249
2004-08-25 07:07:52 51°19.195 2°48.116 22.215353 4.643954 32.709337 -0.814958
2004-08-25 07:07:58 51°19.204 2°48.085 22.202213 4.644376 32.71161 -0.781249
2004-08-25 07:08:00 51°19.207 2°48.074 22.202998 4.644059 32.709642 -0.74754
2004-08-25 07:08:05 51°19.215 2°48.048 22.196839 4.644059 32.709642 -0.814958
2004-08-25 07:08:15 51°19.231 2°47.997 22.200448 4.643638 32.706841 -0.781249
2004-08-25 07:08:21 51°19.241 2°47.967 22.21453 4.643954 32.708283 -0.781249
2004-08-25 07:08:26 51°19.248 2°47.941 22.223276 4.643954 32.70881 -0.781249
2004-08-25 07:08:30 51°19.255 2°47.921 22.212059 4.643427 32.705705 -0.74754
2004-08-25 07:08:34 51°19.261 2°47.901 22.212059 4.643427 32.705705 -0.74754
2004-08-25 07:08:40 51°19.271 2°47.87 22.228334 4.64406 32.710696 -0.781249
2004-08-25 07:08:45 51°19.279 2°47.845 22.211823 4.643849 32.710087 -0.781249
2004-08-25 07:08:51 51°19.288 2°47.815 22.212059 4.643849 32.70956 -0.781249
2004-08-25 07:08:55 51°19.294 2°47.794 22.222648 4.643427 32.707287 -0.814958
2004-08-25 07:09:01 51°19.303 2°47.763 22.222648 4.643427 32.707287 -0.814958
2004-08-25 07:09:06 51°19.311 2°47.738 22.207313 4.644165 32.711528 -0.781249
2004-08-25 07:09:10 51°19.317 2°47.718 22.227079 4.643321 32.705928 -0.74754
2004-08-25 07:09:15 51°19.324 2°47.692 22.215236 4.643849 32.710087 -0.781249
2004-08-25 07:09:19 51°19.33 2°47.671 22.216373 4.643532 32.707591 -0.814958
2004-08-25 07:09:25 51°19.34 2°47.641 22.219275 4.643321 32.705928 -0.781249
2004-08-25 07:09:30 51°19.348 2°47.615 22.219275 4.643321 32.705928 -0.781249
2004-08-25 07:09:35 51°19.356 2°47.589 22.218687 4.643638 32.708423 -0.781249
2004-08-25 07:09:41 51°19.365 2°47.558 22.220373 4.643743 32.709255 -0.814958
2004-08-25 07:09:44 51°19.37 2°47.543 22.225197 4.643321 32.707509 -0.814958
2004-08-25 07:09:50 51°19.379 2°47.512 22.225511 4.643427 32.708869 -0.814958
2004-08-25 07:09:55 51°19.387 2°47.486 22.215824 4.643638 32.710533 -0.781249
2004-08-25 07:10:00 51°19.395 2°47.462 22.215824 4.643638 32.710533 -0.781249
2004-08-25 07:10:06 51°19.404 2°47.43 22.230491 4.643005 32.706068 -0.781249
2004-08-25 07:10:09 51°19.408 2°47.415 22.232687 4.643005 32.705014 -0.781249
2004-08-25 07:10:14 51°19.415 2°47.389 22.251349 4.643321 32.708564 -0.74754
2004-08-25 07:10:20 51°19.422 2°47.358 22.226491 4.643849 32.711669 -0.781249
2004-08-25 07:10:24 51°19.428 2°47.337 22.231981 4.643321 32.709091 -0.781249
2004-08-25 07:10:29 51°19.434 2°47.311 22.231981 4.643321 32.709091 -0.781249
2004-08-25 07:10:34 51°19.44 2°47.285 22.231589 4.64311 32.707427 -0.781249
2004-08-25 07:10:42 51°19.449 2°47.243 22.22806 4.64311 32.706373 -0.74754
2004-08-25 07:10:48 51°19.456 2°47.21 22.22806 4.64311 32.706373 -0.74754
2004-08-25 07:10:53 51°19.462 2°47.184 22.239196 4.643216 32.708259 -0.814958
2004-08-25 07:10:58 51°19.467 2°47.157 22.229275 4.643427 32.709396 -0.781249
2004-08-25 07:11:01 51°19.471 2°47.141 22.232373 4.643216 32.707732 -0.781249
2004-08-25 07:11:08 51°19.479 2°47.103 22.229197 4.643321 32.709091 -0.781249
2004-08-25 07:11:13 51°19.485 2°47.076 22.245194 4.642899 32.705763 -0.814958
2004-08-25 07:11:23 51°19.496 2°47.022 22.244096 4.643216 32.708787 -0.814958
2004-08-25 07:11:29 51°19.503 2°46.99 22.234804 4.643216 32.709314 -0.781249
2004-08-25 07:11:32 51°19.506 2°46.974 22.244253 4.642794 32.706513 -0.74754
2004-08-25 07:11:37 51°19.512 2°46.947 22.239274 4.643638 32.712642 -0.74754
2004-08-25 07:11:41 51°19.516 2°46.926 22.240254 4.643321 32.710673 -0.814958
2004-08-25 07:11:49 51°19.525 2°46.884 22.240254 4.643321 32.710673 -0.814958
2004-08-25 07:11:53 51°19.53 2°46.862 22.259659 4.642794 32.705986 -0.781249
2004-08-25 07:11:58 51°19.535 2°46.836 22.247664 4.643427 32.710978 -0.781249
2004-08-25 07:12:03 51°19.541 2°46.809 22.246566 4.64311 32.709009 -0.781249
2004-08-25 07:12:09 51°19.548 2°46.776 22.243587 4.643005 32.70765 -0.74754
2004-08-25 07:12:11 51°19.55 2°46.766 22.246331 4.643216 32.709314 -0.814958
2004-08-25 07:12:17 51°19.557 2°46.734 22.246331 4.643216 32.709314 -0.814958
2004-08-25 07:12:21 51°19.562 2°46.713 22.242567 4.64311 32.709537 -0.814958
2004-08-25 07:12:28 51°19.57 2°46.675 22.259855 4.642266 32.704463 -0.781249
2004-08-25 07:12:34 51°19.578 2°46.643 22.249271 4.64311 32.709537 -0.781249
2004-08-25 07:12:38 51°19.582 2°46.622 22.2606 4.642794 32.708623 -0.781249
2004-08-25 07:12:43 51°19.588 2°46.595 22.250839 4.643005 32.709232 -0.814958
2004-08-25 07:12:48 51°19.594 2°46.569 22.250839 4.643005 32.709232 -0.814958
2004-08-25 07:12:53 51°19.601 2°46.544 22.251427 4.642899 32.709455 -0.781249
2004-08-25 07:12:58 51°19.607 2°46.518 22.258326 4.642688 32.707791 -0.781249
2004-08-25 07:13:02 51°19.612 2°46.497 22.270751 4.643216 32.711424 -0.781249
2004-08-25 07:13:08 51°19.619 2°46.465 22.256915 4.642688 32.708318 -0.814958
2004-08-25 07:13:13 51°19.625 2°46.439 22.252799 4.642688 32.707264 -0.814958
2004-08-25 07:13:17 51°19.629 2°46.418 22.252799 4.642688 32.707264 -0.814958
2004-08-25 07:13:22 51°19.635 2°46.391 22.254093 4.643005 32.70976 -0.814958
2004-08-25 07:13:29 51°19.642 2°46.354 22.261227 4.642477 32.706654 -0.781249
2004-08-25 07:13:33 51°19.647 2°46.332 22.259346 4.642794 32.708623 -0.781249
2004-08-25 07:13:38 51°19.652 2°46.305 22.258797 4.642794 32.70915 -0.814958
2004-08-25 07:13:42 51°19.657 2°46.284 22.264559 4.642899 32.709982 -0.781249
2004-08-25 07:13:49 51°19.664 2°46.247 22.264559 4.642899 32.709982 -0.781249
2004-08-25 07:13:54 51°19.67 2°46.221 22.259934 4.642794 32.709678 -0.814958
2004-08-25 07:13:58 51°19.674 2°46.199 22.256994 4.642899 32.71051 -0.814958
2004-08-25 07:14:01 51°19.677 2°46.183 22.259542 4.642372 32.70635 -0.814958
2004-08-25 07:14:09 51°19.686 2°46.141 22.267498 4.642899 32.709982 -0.814958
2004-08-25 07:14:14 51°19.692 2°46.115 22.254171 4.643005 32.712397 -0.74754
2004-08-25 07:14:18 51°19.697 2°46.094 22.254171 4.643005 32.712397 -0.74754
2004-08-25 07:14:22 51°19.701 2°46.073 22.271848 4.642266 32.7071 -0.814958
2004-08-25 07:14:27 51°19.707 2°46.047 22.269928 4.642583 32.708541 -0.781249
2004-08-25 07:14:33 51°19.714 2°46.015 22.262677 4.642794 32.709678 -0.781249
2004-08-25 07:14:38 51°19.72 2°45.989 22.26644 4.642477 32.707709 -0.781249
2004-08-25 07:14:42 51°19.724 2°45.968 22.265578 4.642688 32.709901 -0.814958
2004-08-25 07:14:49 51°19.732 2°45.931 22.265578 4.642688 32.709901 -0.814958
2004-08-25 07:14:54 51°19.738 2°45.905 22.283839 4.642055 32.705435 -0.814958
2004-08-25 07:14:58 51°19.743 2°45.884 22.267145 4.642688 32.710428 -0.781249
2004-08-25 07:15:02 51°19.747 2°45.863 22.281057 4.642583 32.710124 -0.781249
2004-08-25 07:15:08 51°19.754 2°45.831 22.275218 4.642477 32.709291 -0.74754
2004-08-25 07:15:14 51°19.76 2°45.8 22.283448 4.642372 32.708459 -0.781249
2004-08-25 07:15:17 51°19.763 2°45.785 22.283448 4.642372 32.708459 -0.781249
2004-08-25 07:15:22 51°19.767 2°45.758 22.27898 4.642372 32.708459 -0.781249
2004-08-25 07:15:29 51°19.774 2°45.721 22.27514 4.642477 32.709819 -0.814958
2004-08-25 07:15:34 51°19.778 2°45.695 22.286778 4.642266 32.708155 -0.781249
2004-08-25 07:15:38 51°19.782 2°45.674 22.276081 4.642794 32.711788 -0.781249
2004-08-25 07:15:42 51°19.786 2°45.653 22.283996 4.641739 32.704521 -0.814958
2004-08-25 07:15:49 51°19.793 2°45.616 22.283996 4.641739 32.704521 -0.814958
2004-08-25 07:15:54 51°19.798 2°45.59 22.277687 4.642583 32.710651 -0.781249
2004-08-25 07:15:58 51°19.801 2°45.569 22.288306 4.641844 32.705881 -0.781249
2004-08-25 07:16:03 51°19.806 2°45.543 22.287718 4.642477 32.710346 -0.781249
2004-08-25 07:16:09 51°19.812 2°45.511 22.278549 4.64195 32.706186 -0.814958
2004-08-25 07:16:11 51°19.813 2°45.501 22.282154 4.642055 32.707545 -0.781249
2004-08-25 07:16:17 51°19.819 2°45.469 22.282154 4.642055 32.707545 -0.781249
2004-08-25 07:16:23 51°19.825 2°45.437 22.296847 4.642161 32.708377 -0.781249
2004-08-25 07:16:27 51°19.829 2°45.416 22.287758 4.642266 32.70921 -0.814958
2004-08-25 07:16:32 51°19.834 2°45.389 22.280078 4.642266 32.70921 -0.781249
2004-08-25 07:16:38 51°19.84 2°45.358 22.304799 4.641422 32.703607 -0.74754
2004-08-25 07:16:42 51°19.845 2°45.337 22.289246 4.642899 32.714203 -0.781249
2004-08-25 07:16:48 51°19.851 2°45.306 22.289246 4.642899 32.714203 -0.781249
2004-08-25 07:16:50 51°19.853 2°45.295 22.298022 4.64195 32.708296 -0.814958
2004-08-25 07:16:58 51°19.859 2°45.252 22.308011 4.641844 32.707991 -0.781249
2004-08-25 07:17:02 51°19.862 2°45.231 22.307306 4.642161 32.710488 -0.781249
2004-08-25 07:17:06 51°19.864 2°45.209 22.301705 4.641633 32.706854 -0.781249
2004-08-25 07:17:13 51°19.869 2°45.172 22.295907 4.641633 32.706327 -0.814958
2004-08-25 07:17:18 51°19.872 2°45.145 22.295907 4.641633 32.706327 -0.814958
2004-08-25 07:17:22 51°19.875 2°45.123 22.297709 4.642794 32.713898 -0.74754
2004-08-25 07:17:28 51°19.878 2°45.091 22.297395 4.641422 32.704135 -0.781249
2004-08-25 07:17:33 51°19.882 2°45.064 22.295006 4.642583 32.713817 -0.781249
2004-08-25 07:17:38 51°19.885 2°45.037 22.304408 4.641739 32.706631 -0.781249
2004-08-25 07:17:42 51°19.887 2°45.016 22.301783 4.642055 32.710183 -0.74754
2004-08-25 07:17:49 51°19.892 2°44.978 22.30288 4.642266 32.71132 -0.814958
2004-08-25 07:17:54 51°19.895 2°44.951 22.30288 4.642266 32.71132 -0.814958
2004-08-25 07:17:58 51°19.897 2°44.929 22.304721 4.64195 32.708823 -0.814958
2004-08-25 07:18:03 51°19.9 2°44.901 22.307933 4.641528 32.706549 -0.781249
2004-08-25 07:18:08 51°19.903 2°44.874 22.306562 4.64195 32.709878 -0.814958
2004-08-25 07:18:13 51°19.906 2°44.847 22.310557 4.64195 32.709878 -0.814958
2004-08-25 07:18:17 51°19.908 2°44.826 22.310557 4.64195 32.709878 -0.814958
2004-08-25 07:18:27 51°19.914 2°44.772 22.311262 4.641528 32.707605 -0.814958
2004-08-25 07:18:33 51°19.917 2°44.739 22.317333 4.642161 32.711543 -0.781249
2004-08-25 07:18:37 51°19.92 2°44.718 22.306249 4.641422 32.706772 -0.781249
2004-08-25 07:18:42 51°19.923 2°44.691 22.306249 4.641422 32.706772 -0.781249
2004-08-25 07:18:47 51°19.926 2°44.663 22.305857 4.642266 32.712903 -0.814958
2004-08-25 07:18:53 51°19.929 2°44.631 22.3095 4.641633 32.708964 -0.781249
2004-08-25 07:18:57 51°19.932 2°44.609 22.314866 4.641528 32.707605 -0.74754
2004-08-25 07:19:02 51°19.935 2°44.581 22.312947 4.641739 32.708741 -0.814958
2004-08-25 07:19:05 51°19.937 2°44.565 22.323169 4.641844 32.711157 -0.781249
2004-08-25 07:19:14 51°19.942 2°44.516 22.327476 4.641422 32.707827 -0.781249
2004-08-25 07:19:21 51°19.947 2°44.478 22.309108 4.64195 32.711461 -0.781249
2004-08-25 07:19:26 51°19.95 2°44.451 22.313965 4.641422 32.708355 -0.781249
2004-08-25 07:19:30 51°19.952 2°44.429 22.330726 4.641001 32.705554 -0.781249
2004-08-25 07:19:35 51°19.956 2°44.402 22.330726 4.641001 32.705554 -0.781249
2004-08-25 07:19:40 51°19.959 2°44.375 22.320231 4.641422 32.708883 -0.814958
2004-08-25 07:19:46 51°19.963 2°44.342 22.315649 4.641844 32.711157 -0.814958
2004-08-25 07:19:49 51°19.965 2°44.326 22.328808 4.641528 32.709187 -0.74754
2004-08-25 07:19:54 51°19.967 2°44.298 22.325009 4.641106 32.706386 -0.848668
2004-08-25 07:20:01 51°19.971 2°44.26 22.335778 4.641212 32.707746 -0.814958
2004-08-25 07:20:05 51°19.974 2°44.238 22.335778 4.641212 32.707746 -0.814958
2004-08-25 07:20:10 51°19.977 2°44.211 22.327006 4.641739 32.710324 -0.814958
2004-08-25 07:20:15 51°19.98 2°44.183 22.344117 4.640895 32.705249 -0.814958
2004-08-25 07:20:27 51°19.987 2°44.118 22.329395 4.641106 32.707441 -0.781249
2004-08-25 07:20:33 51°19.99 2°44.086 22.324422 4.641317 32.708578 -0.814958
2004-08-25 07:20:38 51°19.993 2°44.059 22.333467 4.641212 32.708273 -0.814958
2004-08-25 07:20:42 51°19.995 2°44.037 22.333467 4.641212 32.708273 -0.814958
2004-08-25 07:20:45 51°19.997 2°44.021 22.33104 4.641106 32.707441 -0.781249
2004-08-25 07:20:53 51°20.002 2°43.977 22.331392 4.64079 32.705472 -0.781249
2004-08-25 07:20:57 51°20.005 2°43.956 22.333859 4.641844 32.71274 -0.781249
2004-08-25 07:21:02 51°20.008 2°43.928 22.335699 4.640895 32.707359 -0.814958
2004-08-25 07:21:05 51°20.009 2°43.912 22.341494 4.641739 32.712435 -0.74754
2004-08-25 07:21:15 51°20.015 2°43.857 22.329708 4.641317 32.710161 -0.814958
2004-08-25 07:21:19 51°20.017 2°43.835 22.33241 4.640895 32.706304 -0.814958
2004-08-25 07:21:25 51°20.022 2°43.802 22.340241 4.641423 32.710993 -0.781249
2004-08-25 07:21:30 51°20.025 2°43.775 22.340241 4.641423 32.710993 -0.781249
2004-08-25 07:21:34 51°20.028 2°43.753 22.346035 4.641212 32.708801 -0.781249
2004-08-25 07:21:41 51°20.031 2°43.715 22.350028 4.640473 32.705085 -0.781249
2004-08-25 07:21:44 51°20.033 2°43.698 22.340241 4.641317 32.711744 -0.814958
2004-08-25 07:21:50 51°20.037 2°43.665 22.346035 4.640895 32.707887 -0.781249
2004-08-25 07:21:55 51°20.04 2°43.638 22.343021 4.641317 32.710689 -0.781249
2004-08-25 07:21:59 51°20.042 2°43.616 22.343021 4.641317 32.710689 -0.781249
2004-08-25 07:22:05 51°20.046 2°43.583 22.356018 4.64079 32.70811 -0.781249
2004-08-25 07:22:10 51°20.049 2°43.556 22.361341 4.640684 32.707278 -0.814958
2004-08-25 07:22:14 51°20.051 2°43.533 22.352103 4.641528 32.713409 -0.781249
2004-08-25 07:22:20 51°20.055 2°43.5 22.344704 4.640684 32.707278 -0.781249
2004-08-25 07:22:25 51°20.058 2°43.473 22.357544 4.640579 32.705918 -0.781249
2004-08-25 07:22:30 51°20.062 2°43.446 22.346936 4.641317 32.711217 -0.781249
2004-08-25 07:22:35 51°20.064 2°43.419 22.346936 4.641317 32.711217 -0.781249
2004-08-25 07:22:41 51°20.068 2°43.386 22.358405 4.640684 32.707278 -0.781249
2004-08-25 07:22:46 51°20.071 2°43.359 22.345957 4.641106 32.710607 -0.781249
2004-08-25 07:22:50 51°20.073 2°43.337 22.351242 4.641317 32.712272 -0.781249
2004-08-25 07:22:55 51°20.076 2°43.31 22.348932 4.640262 32.705003 -0.781249
2004-08-25 07:23:00 51°20.079 2°43.283 22.368699 4.641001 32.709775 -0.814958
2004-08-25 07:23:06 51°20.083 2°43.251 22.368699 4.641001 32.709775 -0.814958
2004-08-25 07:23:09 51°20.085 2°43.234 22.362006 4.64079 32.709693 -0.814958
2004-08-25 07:23:14 51°20.087 2°43.208 22.357427 4.641212 32.711967 -0.74754
2004-08-25 07:23:21 51°20.091 2°43.169 22.355039 4.64079 32.709165 -0.848668
2004-08-25 07:23:25 51°20.094 2°43.147 22.364707 4.640895 32.70947 -0.781249
2004-08-25 07:23:29 51°20.096 2°43.126 22.371243 4.640473 32.706668 -0.814958
2004-08-25 07:23:34 51°20.099 2°43.099 22.371243 4.640473 32.706668 -0.814958
2004-08-25 07:23:40 51°20.103 2°43.067 22.362006 4.640473 32.707196 -0.814958
2004-08-25 07:23:46 51°20.107 2°43.033 22.381848 4.640684 32.708861 -0.781249
2004-08-25 07:23:49 51°20.109 2°43.018 22.358171 4.640684 32.709389 -0.781249
2004-08-25 07:23:55 51°20.113 2°42.986 22.378718 4.640473 32.707196 -0.814958
2004-08-25 07:23:59 51°20.115 2°42.965 22.378718 4.640473 32.707196 -0.814958
2004-08-25 07:24:05 51°20.118 2°42.932 22.362554 4.640684 32.709916 -0.781249
2004-08-25 07:24:10 51°20.121 2°42.905 22.36549 4.640368 32.707419 -0.781249
2004-08-25 07:24:14 51°20.124 2°42.884 22.371008 4.641106 32.712718 -0.814958
2004-08-25 07:24:20 51°20.127 2°42.851 22.372026 4.640579 32.709612 -0.781249
2004-08-25 07:24:25 51°20.13 2°42.824 22.369482 4.640895 32.711581 -0.814958
2004-08-25 07:24:30 51°20.133 2°42.797 22.369482 4.640895 32.711581 -0.814958
2004-08-25 07:24:35 51°20.136 2°42.769 22.379031 4.640684 32.710444 -0.781249
2004-08-25 07:24:41 51°20.14 2°42.737 22.377074 4.640368 32.708475 -0.814958
2004-08-25 07:24:46 51°20.143 2°42.709 22.385487 4.640579 32.709612 -0.781249
2004-08-25 07:24:50 51°20.145 2°42.687 22.376409 4.640473 32.709307 -0.814958
2004-08-25 07:24:54 51°20.148 2°42.665 22.379383 4.640473 32.709307 -0.781249
2004-08-25 07:25:00 51°20.151 2°42.633 22.379383 4.640473 32.709307 -0.781249
2004-08-25 07:25:05 51°20.154 2°42.606 22.372417 4.640473 32.710363 -0.781249
2004-08-25 07:25:10 51°20.158 2°42.58 22.38893 4.63984 32.705895 -0.781249
2004-08-25 07:25:13 51°20.159 2°42.564 22.391591 4.640262 32.70817 -0.814958
2004-08-25 07:25:21 51°20.165 2°42.521 22.396129 4.640684 32.710972 -0.781249
2004-08-25 07:25:25 51°20.167 2°42.499 22.382161 4.639946 32.706728 -0.814958
2004-08-25 07:25:30 51°20.17 2°42.472 22.382161 4.639946 32.706728 -0.814958
2004-08-25 07:25:34 51°20.173 2°42.451 22.399767 4.64079 32.712332 -0.781249
2004-08-25 07:25:40 51°20.177 2°42.419 22.378013 4.640157 32.707337 -0.781249
2004-08-25 07:25:45 51°20.18 2°42.391 22.388695 4.640473 32.710363 -0.814958
2004-08-25 07:25:49 51°20.182 2°42.369 22.381691 4.640262 32.70817 -0.781249
2004-08-25 07:25:54 51°20.185 2°42.342 22.386191 4.640473 32.710363 -0.781249
2004-08-25 07:26:01 51°20.189 2°42.304 22.386191 4.640473 32.710363 -0.781249
2004-08-25 07:26:05 51°20.192 2°42.282 22.381378 4.640579 32.711195 -0.781249
2004-08-25 07:26:10 51°20.195 2°42.255 22.39476 4.63984 32.706951 -0.781249
2004-08-25 07:26:15 51°20.198 2°42.228 22.401058 4.640262 32.709753 -0.781249
2004-08-25 07:26:19 51°20.2 2°42.207 22.390182 4.640579 32.712779 -0.814958
2004-08-25 07:26:26 51°20.204 2°42.169 22.385996 4.640579 32.712251 -0.781249
2004-08-25 07:26:30 51°20.206 2°42.147 22.408373 4.639735 32.706119 -0.74754
2004-08-25 07:26:33 51°20.208 2°42.131 22.408373 4.639735 32.706119 -0.74754
2004-08-25 07:26:40 51°20.211 2°42.093 22.397772 4.640368 32.711114 -0.781249
2004-08-25 07:26:46 51°20.215 2°42.061 22.400354 4.640051 32.708616 -0.814958
2004-08-25 07:26:50 51°20.217 2°42.039 22.389986 4.640262 32.710281 -0.781249
2004-08-25 07:26:54 51°20.22 2°42.018 22.394134 4.639946 32.708311 -0.781249
2004-08-25 07:27:01 51°20.224 2°41.98 22.391591 4.640051 32.709144 -0.781249
2004-08-25 07:27:05 51°20.227 2°41.958 22.391591 4.640051 32.709144 -0.781249
2004-08-25 07:27:09 51°20.229 2°41.937 22.407395 4.640051 32.709672 -0.814958
2004-08-25 07:27:14 51°20.232 2°41.91 22.390182 4.640262 32.710281 -0.814958
2004-08-25 07:27:21 51°20.236 2°41.872 22.393508 4.640157 32.709977 -0.781249
2004-08-25 07:27:26 51°20.239 2°41.845 22.392803 4.640262 32.710809 -0.781249
2004-08-25 07:27:30 51°20.241 2°41.824 22.392803 4.640262 32.710809 -0.781249
2004-08-25 07:27:34 51°20.243 2°41.802 22.405361 4.639735 32.70823 -0.781249
2004-08-25 07:27:40 51°20.248 2°41.771 22.408842 4.640473 32.713002 -0.814958
2004-08-25 07:27:44 51°20.25 2°41.75 22.411541 4.640262 32.712393 -0.814958
2004-08-25 07:27:50 51°20.254 2°41.718 22.388695 4.640262 32.712393 -0.781249
2004-08-25 07:27:55 51°20.257 2°41.692 22.426012 4.639629 32.707925 -0.74754
2004-08-25 07:28:01 51°20.261 2°41.661 22.426012 4.639629 32.707925 -0.74754
2004-08-25 07:28:05 51°20.263 2°41.64 22.40231 4.640051 32.710728 -0.781249
2004-08-25 07:28:10 51°20.267 2°41.614 22.405518 4.639735 32.707702 -0.814958
2004-08-25 07:28:13 51°20.268 2°41.597 22.407904 4.639946 32.709367 -0.781249
2004-08-25 07:28:19 51°20.272 2°41.565 22.403679 4.639735 32.70823 -0.814958
2004-08-25 07:28:25 51°20.275 2°41.533 22.411619 4.639524 32.707093 -0.781249
2004-08-25 07:28:30 51°20.278 2°41.506 22.411619 4.639524 32.707093 -0.781249
2004-08-25 07:28:35 51°20.281 2°41.48 22.407395 4.639524 32.707093 -0.781249
2004-08-25 07:28:40 51°20.284 2°41.453 22.412324 4.640262 32.711865 -0.814958
2004-08-25 07:28:46 51°20.288 2°41.421 22.415413 4.638785 32.703376 -0.781249
2004-08-25 07:28:50 51°20.29 2°41.4 22.410759 4.640368 32.713753 -0.814958
2004-08-25 07:28:54 51°20.293 2°41.379 22.42257 4.639524 32.708148 -0.814958
2004-08-25 07:29:00 51°20.297 2°41.347 22.42257 4.639524 32.708148 -0.814958
2004-08-25 07:29:05 51°20.3 2°41.32 22.416156 4.639946 32.710951 -0.814958
2004-08-25 07:29:10 51°20.303 2°41.294 22.414318 4.639524 32.708148 -0.781249
2004-08-25 07:29:14 51°20.305 2°41.273 22.417369 4.639418 32.707316 -0.814958
2004-08-25 07:29:21 51°20.309 2°41.235 22.43481 4.63984 32.710646 -0.74754
2004-08-25 07:29:26 51°20.313 2°41.209 22.418464 4.639207 32.705651 -0.781249
2004-08-25 07:29:30 51°20.315 2°41.187 22.418464 4.639207 32.705651 -0.781249
2004-08-25 07:29:35 51°20.318 2°41.16 22.424565 4.639629 32.709509 -0.781249
2004-08-25 07:29:39 51°20.321 2°41.139 22.423157 4.639313 32.707011 -0.781249
2004-08-25 07:29:46 51°20.325 2°41.102 22.432112 4.639313 32.707011 -0.814958
2004-08-25 07:29:49 51°20.327 2°41.086 22.42257 4.639735 32.710342 -0.781249
2004-08-25 07:29:55 51°20.331 2°41.053 22.429805 4.639418 32.708372 -0.781249
2004-08-25 07:30:01 51°20.335 2°41.021 22.427185 4.638891 32.704736 -0.781249
2004-08-25 07:30:05 51°20.337 2°41 22.427185 4.638891 32.704736 -0.781249
2004-08-25 07:30:10 51°20.34 2°40.973 22.434888 4.639735 32.710869 -0.814958
2004-08-25 07:30:14 51°20.343 2°40.952 22.428554 4.639313 32.708595 -0.814958
2004-08-25 07:30:20 51°20.346 2°40.919 22.447438 4.639102 32.707457 -0.781249
2004-08-25 07:30:26 51°20.35 2°40.887 22.438564 4.639629 32.711621 -0.781249
2004-08-25 07:30:31 51°20.353 2°40.86 22.436726 4.639207 32.707762 -0.781249
2004-08-25 07:30:35 51°20.355 2°40.839 22.436726 4.639207 32.707762 -0.781249
2004-08-25 07:30:39 51°20.358 2°40.817 22.435944 4.639735 32.711925 -0.781249
2004-08-25 07:30:46 51°20.362 2°40.779 22.443021 4.638785 32.704959 -0.814958
2004-08-25 07:30:50 51°20.364 2°40.758 22.43481 4.639102 32.707457 -0.74754
2004-08-25 07:30:54 51°20.367 2°40.736 22.43047 4.639629 32.710565 -0.74754
2004-08-25 07:31:01 51°20.372 2°40.698 22.435944 4.639207 32.707762 -0.814958
2004-08-25 07:31:06 51°20.375 2°40.672 22.435944 4.639207 32.707762 -0.814958
2004-08-25 07:31:10 51°20.377 2°40.65 22.434575 4.639313 32.709123 -0.781249
2004-08-25 07:31:14 51°20.38 2°40.629 22.438251 4.639102 32.707985 -0.74754
2004-08-25 07:31:21 51°20.384 2°40.592 22.442591 4.63868 32.705183 -0.74754
2004-08-25 07:31:26 51°20.388 2°40.565 22.458814 4.639102 32.708513 -0.781249
2004-08-25 07:31:30 51°20.39 2°40.543 22.458814 4.639102 32.708513 -0.781249
2004-08-25 07:31:35 51°20.393 2°40.517 22.447947 4.63868 32.705183 -0.781249
2004-08-25 07:31:41 51°20.397 2°40.484 22.460221 4.638574 32.70435 -0.814958
2004-08-25 07:31:45 51°20.4 2°40.463 22.463661 4.638575 32.705406 -0.781249
2004-08-25 07:31:50 51°20.403 2°40.437 22.450527 4.639946 32.714647 -0.781249
2004-08-25 07:31:54 51°20.405 2°40.415 22.447947 4.638785 32.707071 -0.781249
2004-08-25 07:32:00 51°20.409 2°40.383 22.447947 4.638785 32.707071 -0.781249
2004-08-25 07:32:05 51°20.412 2°40.356 22.459439 4.638891 32.706848 -0.814958
2004-08-25 07:32:11 51°20.415 2°40.324 22.448416 4.639102 32.708513 -0.814958
2004-08-25 07:32:14 51°20.417 2°40.308 22.449901 4.638996 32.708737 -0.74754
2004-08-25 07:32:18 51°20.42 2°40.286 22.448572 4.638574 32.704878 -0.814958
2004-08-25 07:32:25 51°20.425 2°40.249 22.471516 4.638785 32.707071 -0.781249
2004-08-25 07:32:30 51°20.428 2°40.222 22.471516 4.638785 32.707071 -0.781249
2004-08-25 07:32:34 51°20.43 2°40.201 22.456273 4.639418 32.711539 -0.814958
2004-08-25 07:32:40 51°20.434 2°40.168 22.462879 4.638575 32.705934 -0.74754
2004-08-25 07:32:46 51°20.437 2°40.136 22.454749 4.639102 32.710097 -0.781249
2004-08-25 07:32:51 51°20.44 2°40.109 22.475112 4.638891 32.708432 -0.781249
2004-08-25 07:32:55 51°20.443 2°40.087 22.461902 4.639102 32.710097 -0.814958
2004-08-25 07:32:59 51°20.445 2°40.065 22.461902 4.639102 32.710097 -0.814958
2004-08-25 07:33:06 51°20.449 2°40.027 22.454983 4.638786 32.707599 -0.814958
2004-08-25 07:33:10 51°20.452 2°40.005 22.466279 4.63868 32.707294 -0.781249
2004-08-25 07:33:15 51°20.455 2°39.978 22.465967 4.638469 32.706685 -0.781249
2004-08-25 07:33:19 51°20.458 2°39.956 22.469445 4.638997 32.709793 -0.814958
2004-08-25 07:33:25 51°20.462 2°39.923 22.473822 4.638258 32.705019 -0.781249
2004-08-25 07:33:30 51°20.465 2°39.896 22.473822 4.638258 32.705019 -0.781249
2004-08-25 07:33:34 51°20.468 2°39.874 22.466201 4.638891 32.710016 -0.814958
2004-08-25 07:33:38 51°20.471 2°39.853 22.470656 4.63868 32.707822 -0.781249
2004-08-25 07:33:47 51°20.476 2°39.804 22.471516 4.638153 32.705243 -0.781249
2004-08-25 07:33:53 51°20.479 2°39.771 22.490819 4.638364 32.706908 -0.814958
2004-08-25 07:33:57 51°20.482 2°39.75 22.469289 4.638786 32.709711 -0.781249
2004-08-25 07:34:02 51°20.485 2°39.723 22.473822 4.638891 32.709488 -0.781249
2004-08-25 07:34:07 51°20.488 2°39.695 22.472728 4.638469 32.707213 -0.781249
2004-08-25 07:34:13 51°20.491 2°39.663 22.472728 4.638469 32.707213 -0.781249
2004-08-25 07:34:17 51°20.494 2°39.642 22.487303 4.638575 32.708046 -0.814958
2004-08-25 07:34:21 51°20.496 2°39.62 22.473666 4.639524 32.715013 -0.814958
2004-08-25 07:34:25 51°20.499 2°39.598 22.477886 4.638786 32.709711 -0.781249
2004-08-25 07:34:33 51°20.503 2°39.555 22.479918 4.63868 32.709407 -0.814958
2004-08-25 07:34:37 51°20.505 2°39.533 22.479215 4.638153 32.705243 -0.814958
2004-08-25 07:34:42 51°20.508 2°39.506 22.479215 4.638153 32.705243 -0.814958
2004-08-25 07:34:47 51°20.511 2°39.479 22.493906 4.638364 32.706908 -0.781249
2004-08-25 07:34:53 51°20.515 2°39.446 22.482575 4.639102 32.71221 -0.74754
2004-08-25 07:34:56 51°20.516 2°39.43 22.485545 4.638153 32.706827 -0.781249
2004-08-25 07:35:02 51°20.52 2°39.398 22.487147 4.638575 32.709102 -0.781249
2004-08-25 07:35:06 51°20.522 2°39.376 22.483904 4.638575 32.709102 -0.781249
2004-08-25 07:35:13 51°20.525 2°39.338 22.489296 4.638469 32.708797 -0.781249
2004-08-25 07:35:17 51°20.528 2°39.316 22.489296 4.638469 32.708797 -0.781249
2004-08-25 07:35:29 51°20.535 2°39.251 22.497149 4.638575 32.709102 -0.814958
2004-08-25 07:35:34 51°20.538 2°39.223 22.490077 4.637836 32.704856 -0.781249
2004-08-25 07:35:38 51°20.541 2°39.201 22.491093 4.638575 32.70963 -0.814958
2004-08-25 07:35:43 51°20.544 2°39.174 22.501836 4.638153 32.706827 -0.781249
2004-08-25 07:35:47 51°20.546 2°39.152 22.50629 4.638364 32.709021 -0.814958
2004-08-25 07:35:54 51°20.55 2°39.114 22.50629 4.638364 32.709021 -0.814958
2004-08-25 07:35:57 51°20.552 2°39.097 22.502071 4.638153 32.707883 -0.814958
2004-08-25 07:36:02 51°20.554 2°39.07 22.496836 4.638364 32.709021 -0.814958
2004-08-25 07:36:09 51°20.558 2°39.031 22.495234 4.638153 32.707883 -0.781249
2004-08-25 07:36:14 51°20.561 2°39.004 22.506094 4.637942 32.706217 -0.781249
2004-08-25 07:36:18 51°20.564 2°38.982 22.506094 4.637942 32.706217 -0.781249
2004-08-25 07:36:22 51°20.566 2°38.96 22.497774 4.638575 32.710686 -0.781249
2004-08-25 07:36:28 51°20.57 2°38.928 22.499766 4.638047 32.707578 -0.814958
2004-08-25 07:36:33 51°20.574 2°38.9 22.505626 4.638047 32.70705 -0.781249
2004-08-25 07:36:38 51°20.577 2°38.873 22.50461 4.638258 32.709244 -0.781249
2004-08-25 07:36:42 51°20.58 2°38.852 22.505235 4.637731 32.705608 -0.814958
2004-08-25 07:36:48 51°20.583 2°38.819 22.505235 4.637731 32.705608 -0.814958
2004-08-25 07:36:53 51°20.586 2°38.791 22.524763 4.637625 32.705303 -0.814958
2004-08-25 07:36:57 51°20.589 2°38.77 22.511289 4.638047 32.707578 -0.781249
2004-08-25 07:37:01 51°20.591 2°38.748 22.520663 4.638575 32.711214 -0.814958
2004-08-25 07:37:05 51°20.593 2°38.726 22.513984 4.637625 32.705831 -0.74754
2004-08-25 07:37:14 51°20.599 2°38.678 22.507618 4.638047 32.708635 -0.74754
2004-08-25 07:37:18 51°20.601 2°38.656 22.507618 4.638047 32.708635 -0.74754
2004-08-25 07:37:22 51°20.603 2°38.634 22.513086 4.638364 32.711661 -0.814958
2004-08-25 07:37:29 51°20.607 2°38.596 22.514258 4.638047 32.709163 -0.781249
2004-08-25 07:37:34 51°20.61 2°38.569 22.518788 4.637625 32.705831 -0.781249
2004-08-25 07:37:38 51°20.612 2°38.547 22.539133 4.637942 32.707802 -0.781249
2004-08-25 07:37:42 51°20.615 2°38.525 22.513789 4.638469 32.712494 -0.814958
2004-08-25 07:37:48 51°20.617 2°38.493 22.513789 4.638469 32.712494 -0.814958
2004-08-25 07:37:53 51°20.62 2°38.465 22.520663 4.637836 32.708025 -0.781249
2004-08-25 07:37:58 51°20.622 2°38.438 22.512891 4.637942 32.70833 -0.814958
2004-08-25 07:38:03 51°20.625 2°38.41 22.52242 4.637203 32.703556 -0.781249
2004-08-25 07:38:09 51°20.628 2°38.377 22.522733 4.638047 32.709163 -0.781249
2004-08-25 07:38:14 51°20.631 2°38.349 22.520038 4.63752 32.705526 -0.781249
2004-08-25 07:38:18 51°20.633 2°38.327 22.520038 4.63752 32.705526 -0.781249
2004-08-25 07:38:23 51°20.636 2°38.3 22.51914 4.638153 32.710524 -0.781249
2004-08-25 07:38:28 51°20.638 2°38.272 22.525818 4.637731 32.708777 -0.814958
2004-08-25 07:38:33 51°20.641 2°38.245 22.525505 4.637942 32.709914 -0.814958
2004-08-25 07:38:38 51°20.644 2°38.218 22.528747 4.637098 32.703779 -0.781249
2004-08-25 07:38:42 51°20.647 2°38.196 22.521093 4.63868 32.714688 -0.74754
2004-08-25 07:38:49 51°20.652 2°38.159 22.541241 4.637309 32.705445 -0.781249
2004-08-25 07:38:54 51°20.655 2°38.132 22.541241 4.637309 32.705445 -0.781249
2004-08-25 07:38:58 51°20.657 2°38.111 22.548854 4.637625 32.706887 -0.781249
2004-08-25 07:39:03 51°20.66 2°38.084 22.533081 4.638153 32.71158 -0.814958
2004-08-25 07:39:09 51°20.663 2°38.051 22.55065 4.637309 32.705445 -0.781249
2004-08-25 07:39:14 51°20.666 2°38.023 22.533901 4.638153 32.711052 -0.781249
2004-08-25 07:39:18 51°20.668 2°38.001 22.535619 4.637625 32.707416 -0.781249
2004-08-25 07:39:22 51°20.67 2°37.98 22.535619 4.637625 32.707416 -0.781249
2004-08-25 07:39:29 51°20.674 2°37.942 22.531129 4.638153 32.712108 -0.814958
2004-08-25 07:39:34 51°20.677 2°37.915 22.541085 4.63752 32.708167 -0.781249
2004-08-25 07:39:38 51°20.68 2°37.893 22.541241 4.637836 32.710138 -0.781249
2004-08-25 07:39:42 51°20.683 2°37.872 22.54417 4.637625 32.708472 -0.781249
2004-08-25 07:39:49 51°20.687 2°37.833 22.54417 4.637625 32.708472 -0.781249
2004-08-25 07:39:53 51°20.689 2°37.812 22.543389 4.637731 32.709833 -0.814958
2004-08-25 07:39:58 51°20.692 2°37.784 22.545887 4.637309 32.706501 -0.781249
2004-08-25 07:40:07 51°20.697 2°37.736 22.560331 4.637098 32.705364 -0.848668
2004-08-25 07:40:13 51°20.7 2°37.703 22.560331 4.637098 32.705364 -0.848668
2004-08-25 07:40:18 51°20.703 2°37.676 22.542959 4.637731 32.709305 -0.814958
2004-08-25 07:40:22 51°20.706 2°37.655 22.561658 4.63752 32.708167 -0.781249
2004-08-25 07:40:27 51°20.709 2°37.627 22.557286 4.637625 32.708472 -0.781249
2004-08-25 07:40:33 51°20.712 2°37.595 22.552094 4.63752 32.708695 -0.781249
2004-08-25 07:40:37 51°20.714 2°37.573 22.550026 4.636992 32.705059 -0.781249
2004-08-25 07:40:42 51°20.717 2°37.546 22.550026 4.636992 32.705059 -0.781249
2004-08-25 07:40:47 51°20.72 2°37.519 22.569074 4.637098 32.705364 -0.814958
2004-08-25 07:40:50 51°20.722 2°37.502 22.55108 4.637309 32.708086 -0.781249
2004-08-25 07:40:57 51°20.726 2°37.464 22.567356 4.63752 32.709224 -0.814958
2004-08-25 07:41:01 51°20.729 2°37.443 22.552719 4.63752 32.709224 -0.814958
2004-08-25 07:41:07 51°20.732 2°37.41 22.564429 4.637203 32.707253 -0.814958
2004-08-25 07:41:11 51°20.735 2°37.389 22.560409 4.63752 32.709752 -0.814958
2004-08-25 07:41:17 51°20.738 2°37.356 22.560409 4.63752 32.709752 -0.814958
2004-08-25 07:41:23 51°20.742 2°37.323 22.559433 4.63752 32.709752 -0.781249
2004-08-25 07:41:26 51°20.743 2°37.307 22.5656 4.63752 32.709752 -0.814958
2004-08-25 07:41:33 51°20.747 2°37.268 22.565366 4.637203 32.707781 -0.781249
2004-08-25 07:41:37 51°20.749 2°37.246 22.568371 4.637098 32.706948 -0.781249
2004-08-25 07:41:42 51°20.751 2°37.218 22.568371 4.637098 32.706948 -0.781249
2004-08-25 07:41:46 51°20.754 2°37.196 22.563063 4.637309 32.708614 -0.781249
2004-08-25 07:41:53 51°20.758 2°37.158 22.567903 4.637203 32.707253 -0.814958
2004-08-25 07:41:57 51°20.761 2°37.137 22.562439 4.637625 32.711113 -0.781249
2004-08-25 07:42:03 51°20.764 2°37.104 22.578986 4.636781 32.704977 -0.781249
2004-08-25 07:42:06 51°20.766 2°37.088 22.578127 4.636887 32.706339 -0.781249
2004-08-25 07:42:11 51°20.769 2°37.061 22.578127 4.636887 32.706339 -0.781249
2004-08-25 07:42:17 51°20.772 2°37.028 22.584761 4.63752 32.71028 -0.814958
2004-08-25 07:42:22 51°20.775 2°37.001 22.571844 4.636887 32.706339 -0.814958
2004-08-25 07:42:26 51°20.778 2°36.979 22.572742 4.637309 32.709142 -0.781249
2004-08-25 07:42:33 51°20.782 2°36.941 22.579064 4.637098 32.708533 -0.814958
2004-08-25 07:42:37 51°20.784 2°36.92 22.580313 4.637098 32.708005 -0.74754
2004-08-25 07:42:41 51°20.787 2°36.898 22.580313 4.637098 32.708005 -0.74754
2004-08-25 07:42:46 51°20.79 2°36.871 22.583083 4.636992 32.707172 -0.814958
2004-08-25 07:42:51 51°20.793 2°36.844 22.575669 4.637414 32.710504 -0.814958
2004-08-25 07:42:57 51°20.797 2°36.811 22.581834 4.636781 32.706034 -0.781249
2004-08-25 07:43:02 51°20.8 2°36.784 22.578361 4.637625 32.71217 -0.781249
2004-08-25 07:43:07 51°20.803 2°36.758 22.594515 4.636359 32.703758 -0.781249
2004-08-25 07:43:13 51°20.807 2°36.725 22.594788 4.637414 32.711032 -0.814958
2004-08-25 07:43:17 51°20.809 2°36.704 22.594788 4.637414 32.711032 -0.814958
2004-08-25 07:43:21 51°20.812 2°36.683 22.59315 4.63657 32.704896 -0.781249
2004-08-25 07:43:27 51°20.815 2°36.65 22.586712 4.637203 32.709366 -0.74754
2004-08-25 07:43:32 51°20.818 2°36.624 22.586244 4.637098 32.708533 -0.814958
2004-08-25 07:43:37 51°20.821 2°36.597 22.590692 4.636992 32.708757 -0.814958
2004-08-25 07:43:43 51°20.824 2°36.564 22.590692 4.636992 32.708757 -0.814958
2004-08-25 07:43:45 51°20.826 2°36.553 22.590848 4.636676 32.705729 -0.781249
2004-08-25 07:43:53 51°20.83 2°36.509 22.596934 4.637098 32.70959 -0.781249
2004-08-25 07:43:57 51°20.833 2°36.488 22.591316 4.636781 32.706562 -0.781249
2004-08-25 07:44:01 51°20.835 2°36.466 22.590926 4.636781 32.706562 -0.814958
2004-08-25 07:44:07 51°20.839 2°36.433 22.590067 4.636887 32.707923 -0.781249
2004-08-25 07:44:13 51°20.844 2°36.401 22.592993 4.637098 32.70959 -0.781249
2004-08-25 07:44:17 51°20.846 2°36.379 22.592993 4.637098 32.70959 -0.781249
2004-08-25 07:44:20 51°20.848 2°36.363 22.603176 4.636359 32.704815 -0.74754
2004-08-25 07:44:25 51°20.851 2°36.336 22.594008 4.637625 32.713755 -0.814958
2004-08-25 07:44:32 51°20.856 2°36.3 22.601342 4.636148 32.703677 -0.814958
2004-08-25 07:44:37 51°20.859 2°36.273 22.61047 4.636887 32.70898 -0.781249
2004-08-25 07:44:47 51°20.865 2°36.22 22.597675 4.636465 32.705119 -0.814958
2004-08-25 07:44:53 51°20.869 2°36.188 22.607934 4.636359 32.704286 -0.781249
2004-08-25 07:44:57 51°20.872 2°36.166 22.605555 4.636992 32.709285 -0.781249
2004-08-25 07:45:01 51°20.874 2°36.145 22.612108 4.636781 32.708147 -0.781249
2004-08-25 07:45:06 51°20.877 2°36.118 22.605087 4.636676 32.707314 -0.814958
2004-08-25 07:45:13 51°20.881 2°36.08 22.605087 4.636676 32.707314 -0.814958
2004-08-25 07:45:17 51°20.884 2°36.058 22.623808 4.636992 32.709285 -0.781249
2004-08-25 07:45:23 51°20.888 2°36.026 22.610002 4.636887 32.709508 -0.781249
2004-08-25 07:45:25 51°20.889 2°36.015 22.606881 4.637098 32.710646 -0.814958
2004-08-25 07:45:33 51°20.894 2°35.973 22.608286 4.636992 32.71087 -0.781249
2004-08-25 07:45:37 51°20.897 2°35.951 22.627591 4.636359 32.705871 -0.74754
2004-08-25 07:45:42 51°20.899 2°35.924 22.627591 4.636359 32.705871 -0.74754
2004-08-25 07:45:47 51°20.902 2°35.897 22.61866 4.636465 32.706176 -0.781249
2004-08-25 07:45:53 51°20.906 2°35.864 22.621507 4.636887 32.710037 -0.814958
2004-08-25 07:45:57 51°20.909 2°35.842 22.614877 4.636676 32.707842 -0.814958
2004-08-25 07:46:02 51°20.912 2°35.815 22.61788 4.636676 32.708371 -0.74754
2004-08-25 07:46:06 51°20.914 2°35.793 22.619986 4.636043 32.7039 -0.814958
2004-08-25 07:46:13 51°20.919 2°35.755 22.617724 4.636676 32.708899 -0.74754
2004-08-25 07:46:17 51°20.922 2°35.733 22.617724 4.636676 32.708899 -0.74754
2004-08-25 07:46:22 51°20.925 2°35.706 22.627513 4.637098 32.711703 -0.781249
2004-08-25 07:46:27 51°20.928 2°35.679 22.629034 4.635727 32.702457 -0.781249
2004-08-25 07:46:33 51°20.933 2°35.647 22.632348 4.636676 32.708899 -0.781249
2004-08-25 07:46:38 51°20.936 2°35.62 22.626187 4.636465 32.708289 -0.814958
2004-08-25 07:46:42 51°20.939 2°35.598 22.621507 4.636676 32.708899 -0.814958
2004-08-25 07:46:46 51°20.941 2°35.576 22.621507 4.636676 32.708899 -0.814958
2004-08-25 07:46:52 51°20.946 2°35.544 22.626421 4.636676 32.709956 -0.781249
2004-08-25 07:46:58 51°20.95 2°35.512 22.635741 4.636149 32.705262 -0.781249
2004-08-25 07:47:01 51°20.952 2°35.496 22.639328 4.636676 32.709427 -0.814958
2004-08-25 07:47:06 51°20.955 2°35.469 22.629658 4.63657 32.708594 -0.781249
2004-08-25 07:47:13 51°20.961 2°35.432 22.63227 4.635938 32.704124 -0.781249
2004-08-25 07:47:17 51°20.964 2°35.41 22.63227 4.635938 32.704124 -0.781249
2004-08-25 07:47:23 51°20.968 2°35.378 22.640575 4.636043 32.704957 -0.781249
2004-08-25 07:47:27 51°20.971 2°35.356 22.638782 4.636676 32.709427 -0.74754
2004-08-25 07:47:33 51°20.976 2°35.324 22.637846 4.636465 32.708289 -0.781249
2004-08-25 07:47:38 51°20.979 2°35.297 22.64541 4.636149 32.706318 -0.781249
2004-08-25 07:47:42 51°20.982 2°35.275 22.64541 4.636149 32.706318 -0.781249
2004-08-25 07:47:46 51°20.985 2°35.253 22.638782 4.636254 32.706623 -0.781249
2004-08-25 07:47:52 51°20.989 2°35.221 22.63847 4.636465 32.708818 -0.814958
2004-08-25 07:47:57 51°20.993 2°35.194 22.647164 4.636254 32.707152 -0.814958
2004-08-25 07:48:01 51°20.996 2°35.172 22.644318 4.636465 32.708289 -0.781249
2004-08-25 07:48:10 51°21.003 2°35.124 22.649386 4.636571 32.709651 -0.781249
2004-08-25 07:48:17 51°21.007 2°35.086 22.654142 4.635516 32.702376 -0.781249
2004-08-25 07:48:21 51°21.011 2°35.064 22.64732 4.636781 32.711317 -0.781249
2004-08-25 07:48:26 51°21.014 2°35.037 22.650439 4.636676 32.711541 -0.781249
2004-08-25 07:48:30 51°21.017 2°35.016 22.660145 4.636571 32.709651 -0.814958
2004-08-25 07:48:37 51°21.022 2°34.979 22.650049 4.636254 32.708737 -0.814958
2004-08-25 07:48:41 51°21.025 2°34.958 22.650049 4.636254 32.708737 -0.814958
2004-08-25 07:48:46 51°21.028 2°34.931 22.654064 4.636254 32.708208 -0.781249
2004-08-25 07:48:50 51°21.03 2°34.909 22.654688 4.636887 32.713207 -0.814958
2004-08-25 07:48:55 51°21.034 2°34.883 22.652427 4.635832 32.706461 -0.781249
2004-08-25 07:49:02 51°21.039 2°34.846 22.663068 4.635938 32.705709 -0.781249